PWSweather.com
Personal Weather Stations
Station Observations
DL5ARK
SonnebergDE

SonnebergDE

Lat: 50.34904861, Lon: 11.18112087

Elevation: 1214

Station Type: Selfmade

http://www.sumbarg.de

High Low Average
Temperature 88.1°F31.2°C 64.0°F17.8°C 76.3°F24.6°C
Dew Point 72.4°F22.4°C 54.8°F12.7°C 65.5°F18.6°C
Winds 10.9 mph 17.5 kmh Calm Calm 3.0 mph SW4.8 kmh SW
Wind Gusts 11.0 mph17.7 kmh -- 3.0 mph4.8 kmh
Humidity 76% 33% 54%
Pressure 30.04 in1017.3 mb 29.94 in1013.9 mb -
Precipitation 0.00 in0.0 mm - -
Hour Temp Dew Point Humidity Winds Wind Gusts Pressure Precip Precip Rate Daily Precip Total
12:00 AM 65.5°F18.6°C 65.4°F18.6°C 65% Calm Calm -- 29.94 in1013.9 mb 0.00 in0.0 mm 0.00 in0.0 mm 0.00 in0.0 mm
12:03 AM 66.1°F18.9°C 65.6°F18.7°C 65% Calm Calm -- 29.94 in1013.9 mb 0.00 in0.0 mm 0.00 in0.0 mm 0.00 in0.0 mm
12:06 AM 65.4°F18.6°C 66.0°F18.9°C 65% Calm Calm -- 29.94 in1013.9 mb 0.00 in0.0 mm 0.00 in0.0 mm 0.00 in0.0 mm
12:09 AM 65.4°F18.6°C 65.6°F18.7°C 65% Calm Calm -- 29.94 in1013.9 mb 0.00 in0.0 mm 0.00 in0.0 mm 0.00 in0.0 mm
12:12 AM 65.9°F18.8°C 65.1°F18.4°C 65% Calm Calm -- 29.95 in1014.2 mb 0.00 in0.0 mm 0.00 in0.0 mm 0.00 in0.0 mm
12:15 AM 66.4°F19.1°C 64.8°F18.2°C 64% Calm Calm -- 29.95 in1014.2 mb 0.00 in0.0 mm 0.00 in0.0 mm 0.00 in0.0 mm
12:21 AM 66.5°F19.2°C 65.1°F18.4°C 65% Calm Calm -- 29.94 in1013.9 mb 0.00 in0.0 mm 0.00 in0.0 mm 0.00 in0.0 mm
12:24 AM 66.4°F19.1°C 65.6°F18.7°C 64% Calm Calm -- 29.95 in1014.2 mb 0.00 in0.0 mm 0.00 in0.0 mm 0.00 in0.0 mm
12:27 AM 65.6°F18.7°C 64.7°F18.2°C 64% Calm Calm -- 29.96 in1014.6 mb 0.00 in0.0 mm 0.00 in0.0 mm 0.00 in0.0 mm
12:30 AM 65.4°F18.6°C 65.2°F18.4°C 66% Calm Calm -- 29.96 in1014.6 mb 0.00 in0.0 mm 0.00 in0.0 mm 0.00 in0.0 mm
12:33 AM 66.1°F18.9°C 65.8°F18.8°C 68% Calm Calm -- 29.96 in1014.6 mb 0.00 in0.0 mm 0.00 in0.0 mm 0.00 in0.0 mm
12:36 AM 65.9°F18.8°C 65.4°F18.6°C 67% Calm Calm -- 29.96 in1014.6 mb 0.00 in0.0 mm 0.00 in0.0 mm 0.00 in0.0 mm
12:39 AM 66.1°F18.9°C 66.2°F19.0°C 69% Calm Calm -- 29.96 in1014.6 mb 0.00 in0.0 mm 0.00 in0.0 mm 0.00 in0.0 mm
12:42 AM 66.0°F18.9°C 66.0°F18.9°C 69% 0.4 mph NNW0.6 kmh NNW 0.4 mph0.6 kmh 29.96 in1014.6 mb 0.00 in0.0 mm 0.00 in0.0 mm 0.00 in0.0 mm
12:45 AM 65.9°F18.8°C 66.4°F19.1°C 68% Calm Calm -- 29.96 in1014.6 mb 0.00 in0.0 mm 0.00 in0.0 mm 0.00 in0.0 mm
12:48 AM 65.6°F18.7°C 65.4°F18.6°C 68% Calm Calm -- 29.96 in1014.6 mb 0.00 in0.0 mm 0.00 in0.0 mm 0.00 in0.0 mm
12:51 AM 65.8°F18.8°C 65.6°F18.7°C 69% Calm Calm -- 29.96 in1014.6 mb 0.00 in0.0 mm 0.00 in0.0 mm 0.00 in0.0 mm
12:54 AM 65.2°F18.4°C 65.8°F18.8°C 67% Calm Calm -- 29.96 in1014.6 mb 0.00 in0.0 mm 0.00 in0.0 mm 0.00 in0.0 mm
12:57 AM 65.8°F18.8°C 64.7°F18.2°C 67% Calm Calm -- 29.96 in1014.6 mb 0.00 in0.0 mm 0.00 in0.0 mm 0.00 in0.0 mm
01:00 AM 65.3°F18.5°C 64.7°F18.2°C 67% Calm Calm -- 29.96 in1014.6 mb 0.00 in0.0 mm 0.00 in0.0 mm 0.00 in0.0 mm
01:03 AM 64.9°F18.3°C 64.6°F18.1°C 67% Calm Calm -- 29.96 in1014.6 mb 0.00 in0.0 mm 0.00 in0.0 mm 0.00 in0.0 mm
01:09 AM 65.0°F18.3°C 65.0°F18.3°C 67% Calm Calm -- 29.96 in1014.6 mb 0.00 in0.0 mm 0.00 in0.0 mm 0.00 in0.0 mm
01:12 AM 64.7°F18.2°C 64.7°F18.2°C 68% Calm Calm -- 29.95 in1014.2 mb 0.00 in0.0 mm 0.00 in0.0 mm 0.00 in0.0 mm
01:15 AM 65.0°F18.3°C 64.4°F18.0°C 67% Calm Calm -- 29.95 in1014.2 mb 0.00 in0.0 mm 0.00 in0.0 mm 0.00 in0.0 mm
01:18 AM 65.1°F18.4°C 64.9°F18.3°C 67% Calm Calm -- 29.95 in1014.2 mb 0.00 in0.0 mm 0.00 in0.0 mm 0.00 in0.0 mm
01:24 AM 65.1°F18.4°C 66.0°F18.9°C 69% Calm Calm -- 29.94 in1013.9 mb 0.00 in0.0 mm 0.00 in0.0 mm 0.00 in0.0 mm
01:27 AM 65.9°F18.8°C 65.5°F18.6°C 69% 0.4 mph NW0.6 kmh NW 0.4 mph0.6 kmh 29.95 in1014.2 mb 0.00 in0.0 mm 0.00 in0.0 mm 0.00 in0.0 mm
01:30 AM 68.3°F20.2°C 66.1°F18.9°C 70% 3.6 mph E5.8 kmh E 3.6 mph5.8 kmh 29.95 in1014.2 mb 0.00 in0.0 mm 0.00 in0.0 mm 0.00 in0.0 mm
01:33 AM 67.8°F19.9°C 66.4°F19.1°C 70% 1.2 mph NE1.9 kmh NE 1.2 mph1.9 kmh 29.94 in1013.9 mb 0.00 in0.0 mm 0.00 in0.0 mm 0.00 in0.0 mm
01:36 AM 71.6°F22.0°C 67.2°F19.6°C 72% 4.8 mph NE7.7 kmh NE 4.8 mph7.7 kmh 29.95 in1014.2 mb 0.00 in0.0 mm 0.00 in0.0 mm 0.00 in0.0 mm
01:39 AM 72.1°F22.3°C 67.4°F19.7°C 71% 2.4 mph NE3.9 kmh NE 2.4 mph3.9 kmh 29.94 in1013.9 mb 0.00 in0.0 mm 0.00 in0.0 mm 0.00 in0.0 mm
01:42 AM 72.8°F22.7°C 67.9°F19.9°C 71% 4.2 mph NE6.8 kmh NE 4.3 mph6.9 kmh 29.94 in1013.9 mb 0.00 in0.0 mm 0.00 in0.0 mm 0.00 in0.0 mm
01:45 AM 74.0°F23.3°C 67.3°F19.6°C 70% 3.4 mph NNW5.5 kmh NNW 3.7 mph6.0 kmh 29.94 in1013.9 mb 0.00 in0.0 mm 0.00 in0.0 mm 0.00 in0.0 mm
01:48 AM 73.6°F23.1°C 67.7°F19.8°C 71% 6.5 mph ENE10.5 kmh ENE 6.5 mph10.5 kmh 29.94 in1013.9 mb 0.00 in0.0 mm 0.00 in0.0 mm 0.00 in0.0 mm
01:51 AM 73.4°F23.0°C 67.5°F19.7°C 70% 0.8 mph NE1.3 kmh NE 0.8 mph1.3 kmh 29.94 in1013.9 mb 0.00 in0.0 mm 0.00 in0.0 mm 0.00 in0.0 mm
01:54 AM 74.2°F23.4°C 68.5°F20.3°C 70% 1.9 mph NE3.1 kmh NE 1.9 mph3.1 kmh 29.94 in1013.9 mb 0.00 in0.0 mm 0.00 in0.0 mm 0.00 in0.0 mm
01:57 AM 74.0°F23.3°C 68.3°F20.2°C 70% 2.7 mph NNW4.3 kmh NNW 2.9 mph4.7 kmh 29.94 in1013.9 mb 0.00 in0.0 mm 0.00 in0.0 mm 0.00 in0.0 mm
02:00 AM 74.4°F23.6°C 68.4°F20.2°C 69% 2.3 mph NE3.7 kmh NE 2.3 mph3.7 kmh 29.95 in1014.2 mb 0.00 in0.0 mm 0.00 in0.0 mm 0.00 in0.0 mm
02:03 AM 73.7°F23.2°C 68.7°F20.4°C 69% Calm Calm -- 29.96 in1014.6 mb 0.00 in0.0 mm 0.00 in0.0 mm 0.00 in0.0 mm
02:12 AM 72.2°F22.3°C 68.3°F20.2°C 69% 1.9 mph SSW3.1 kmh SSW 1.9 mph3.1 kmh 29.95 in1014.2 mb 0.00 in0.0 mm 0.00 in0.0 mm 0.00 in0.0 mm
02:15 AM 71.6°F22.0°C 67.6°F19.8°C 68% 2.7 mph SSW4.3 kmh SSW 2.7 mph4.3 kmh 29.95 in1014.2 mb 0.00 in0.0 mm 0.00 in0.0 mm 0.00 in0.0 mm
02:18 AM 71.0°F21.7°C 67.8°F19.9°C 68% 1.6 mph NNW2.6 kmh NNW 1.6 mph2.6 kmh 29.96 in1014.6 mb 0.00 in0.0 mm 0.00 in0.0 mm 0.00 in0.0 mm
02:21 AM 70.8°F21.6°C 67.2°F19.6°C 68% Calm Calm -- 29.95 in1014.2 mb 0.00 in0.0 mm 0.00 in0.0 mm 0.00 in0.0 mm
02:24 AM 70.4°F21.3°C 67.0°F19.4°C 68% Calm Calm -- 29.96 in1014.6 mb 0.00 in0.0 mm 0.00 in0.0 mm 0.00 in0.0 mm
02:27 AM 70.9°F21.6°C 67.3°F19.6°C 68% 2.7 mph NNW4.3 kmh NNW 2.8 mph4.5 kmh 29.96 in1014.6 mb 0.00 in0.0 mm 0.00 in0.0 mm 0.00 in0.0 mm
02:30 AM 70.6°F21.4°C 67.5°F19.7°C 69% Calm Calm -- 29.96 in1014.6 mb 0.00 in0.0 mm 0.00 in0.0 mm 0.00 in0.0 mm
02:33 AM 70.1°F21.2°C 66.7°F19.3°C 68% Calm Calm -- 29.96 in1014.6 mb 0.00 in0.0 mm 0.00 in0.0 mm 0.00 in0.0 mm
02:36 AM 70.0°F21.1°C 66.8°F19.3°C 69% 2.4 mph ESE3.9 kmh ESE 2.4 mph3.9 kmh 29.95 in1014.2 mb 0.00 in0.0 mm 0.00 in0.0 mm 0.00 in0.0 mm
02:39 AM 69.5°F20.8°C 67.1°F19.5°C 68% Calm Calm -- 29.96 in1014.6 mb 0.00 in0.0 mm 0.00 in0.0 mm 0.00 in0.0 mm
02:42 AM 68.8°F20.4°C 66.2°F19.0°C 67% Calm Calm -- 29.96 in1014.6 mb 0.00 in0.0 mm 0.00 in0.0 mm 0.00 in0.0 mm
02:45 AM 68.8°F20.4°C 66.0°F18.9°C 67% Calm Calm -- 29.96 in1014.6 mb 0.00 in0.0 mm 0.00 in0.0 mm 0.00 in0.0 mm
02:48 AM 68.2°F20.1°C 66.2°F19.0°C 68% 1.6 mph SW2.6 kmh SW 1.6 mph2.6 kmh 29.96 in1014.6 mb 0.00 in0.0 mm 0.00 in0.0 mm 0.00 in0.0 mm
02:51 AM 67.9°F19.9°C 66.6°F19.2°C 68% Calm Calm -- 29.96 in1014.6 mb 0.00 in0.0 mm 0.00 in0.0 mm 0.00 in0.0 mm
02:54 AM 68.1°F20.1°C 66.4°F19.1°C 68% Calm Calm -- 29.96 in1014.6 mb 0.00 in0.0 mm 0.00 in0.0 mm 0.00 in0.0 mm
03:00 AM 67.3°F19.6°C 65.9°F18.8°C 70% Calm Calm -- 29.96 in1014.6 mb 0.00 in0.0 mm 0.00 in0.0 mm 0.00 in0.0 mm
03:03 AM 67.4°F19.7°C 66.7°F19.3°C 69% 0.8 mph ESE1.3 kmh ESE 0.8 mph1.3 kmh 29.96 in1014.6 mb 0.00 in0.0 mm 0.00 in0.0 mm 0.00 in0.0 mm
03:09 AM 67.4°F19.7°C 66.6°F19.2°C 69% Calm Calm -- 29.96 in1014.6 mb 0.00 in0.0 mm 0.00 in0.0 mm 0.00 in0.0 mm
03:12 AM 67.1°F19.5°C 65.7°F18.7°C 69% Calm Calm -- 29.96 in1014.6 mb 0.00 in0.0 mm 0.00 in0.0 mm 0.00 in0.0 mm
03:15 AM 67.1°F19.5°C 65.6°F18.7°C 68% Calm Calm -- 29.96 in1014.6 mb 0.00 in0.0 mm 0.00 in0.0 mm 0.00 in0.0 mm
03:18 AM 66.7°F19.3°C 65.9°F18.8°C 68% Calm Calm -- 29.96 in1014.6 mb 0.00 in0.0 mm 0.00 in0.0 mm 0.00 in0.0 mm
03:21 AM 66.4°F19.1°C 65.8°F18.8°C 68% 2.0 mph NNE3.2 kmh NNE 2.0 mph3.2 kmh 29.97 in1014.9 mb 0.00 in0.0 mm 0.00 in0.0 mm 0.00 in0.0 mm
03:24 AM 67.0°F19.4°C 65.3°F18.5°C 68% 1.6 mph 2.6 kmh 1.6 mph2.6 kmh 29.97 in1014.9 mb 0.00 in0.0 mm 0.00 in0.0 mm 0.00 in0.0 mm
03:27 AM 67.4°F19.7°C 65.1°F18.4°C 69% Calm Calm -- 29.97 in1014.9 mb 0.00 in0.0 mm 0.00 in0.0 mm 0.00 in0.0 mm
03:30 AM 66.7°F19.3°C 66.5°F19.2°C 70% Calm Calm -- 29.97 in1014.9 mb 0.00 in0.0 mm 0.00 in0.0 mm 0.00 in0.0 mm
03:33 AM 66.8°F19.3°C 66.2°F19.0°C 70% Calm Calm -- 29.97 in1014.9 mb 0.00 in0.0 mm 0.00 in0.0 mm 0.00 in0.0 mm
03:36 AM 66.5°F19.2°C 65.1°F18.4°C 70% Calm Calm -- 29.96 in1014.6 mb 0.00 in0.0 mm 0.00 in0.0 mm 0.00 in0.0 mm
03:39 AM 66.7°F19.3°C 65.4°F18.6°C 70% Calm Calm -- 29.96 in1014.6 mb 0.00 in0.0 mm 0.00 in0.0 mm 0.00 in0.0 mm
03:42 AM 66.9°F19.4°C 65.9°F18.8°C 70% Calm Calm -- 29.96 in1014.6 mb 0.00 in0.0 mm 0.00 in0.0 mm 0.00 in0.0 mm
03:45 AM 66.2°F19.0°C 66.1°F18.9°C 71% Calm Calm -- 29.96 in1014.6 mb 0.00 in0.0 mm 0.00 in0.0 mm 0.00 in0.0 mm
03:48 AM 65.4°F18.6°C 65.1°F18.4°C 70% Calm Calm -- 29.96 in1014.6 mb 0.00 in0.0 mm 0.00 in0.0 mm 0.00 in0.0 mm
03:51 AM 66.1°F18.9°C 65.7°F18.7°C 72% Calm Calm -- 29.96 in1014.6 mb 0.00 in0.0 mm 0.00 in0.0 mm 0.00 in0.0 mm
03:54 AM 66.2°F19.0°C 66.0°F18.9°C 72% Calm Calm -- 29.96 in1014.6 mb 0.00 in0.0 mm 0.00 in0.0 mm 0.00 in0.0 mm
03:57 AM 66.3°F19.1°C 65.8°F18.8°C 71% Calm Calm -- 29.96 in1014.6 mb 0.00 in0.0 mm 0.00 in0.0 mm 0.00 in0.0 mm
04:00 AM 66.4°F19.1°C 66.3°F19.1°C 72% Calm Calm -- 29.96 in1014.6 mb 0.00 in0.0 mm 0.00 in0.0 mm 0.00 in0.0 mm
04:03 AM 66.3°F19.1°C 65.8°F18.8°C 73% Calm Calm -- 29.96 in1014.6 mb 0.00 in0.0 mm 0.00 in0.0 mm 0.00 in0.0 mm
04:06 AM 65.8°F18.8°C 65.5°F18.6°C 72% Calm Calm -- 29.96 in1014.6 mb 0.00 in0.0 mm 0.00 in0.0 mm 0.00 in0.0 mm
04:09 AM 65.6°F18.7°C 65.6°F18.7°C 72% Calm Calm -- 29.95 in1014.2 mb 0.00 in0.0 mm 0.00 in0.0 mm 0.00 in0.0 mm
04:12 AM 65.1°F18.4°C 64.8°F18.2°C 70% Calm Calm -- 29.96 in1014.6 mb 0.00 in0.0 mm 0.00 in0.0 mm 0.00 in0.0 mm
04:15 AM 65.4°F18.6°C 64.8°F18.2°C 71% Calm Calm -- 29.96 in1014.6 mb 0.00 in0.0 mm 0.00 in0.0 mm 0.00 in0.0 mm
04:18 AM 65.3°F18.5°C 65.3°F18.5°C 71% Calm Calm -- 29.96 in1014.6 mb 0.00 in0.0 mm 0.00 in0.0 mm 0.00 in0.0 mm
04:21 AM 65.3°F18.5°C 65.2°F18.4°C 71% Calm Calm -- 29.96 in1014.6 mb 0.00 in0.0 mm 0.00 in0.0 mm 0.00 in0.0 mm
04:24 AM 65.8°F18.8°C 65.1°F18.4°C 71% Calm Calm -- 29.96 in1014.6 mb 0.00 in0.0 mm 0.00 in0.0 mm 0.00 in0.0 mm
04:27 AM 65.6°F18.7°C 65.4°F18.6°C 72% Calm Calm -- 29.96 in1014.6 mb 0.00 in0.0 mm 0.00 in0.0 mm 0.00 in0.0 mm
04:30 AM 65.8°F18.8°C 65.4°F18.6°C 72% Calm Calm -- 29.95 in1014.2 mb 0.00 in0.0 mm 0.00 in0.0 mm 0.00 in0.0 mm
04:33 AM 65.8°F18.8°C 65.6°F18.7°C 73% Calm Calm -- 29.95 in1014.2 mb 0.00 in0.0 mm 0.00 in0.0 mm 0.00 in0.0 mm
04:36 AM 65.8°F18.8°C 65.9°F18.8°C 73% Calm Calm -- 29.94 in1013.9 mb 0.00 in0.0 mm 0.00 in0.0 mm 0.00 in0.0 mm
04:39 AM 65.9°F18.8°C 65.2°F18.4°C 73% Calm Calm -- 29.94 in1013.9 mb 0.00 in0.0 mm 0.00 in0.0 mm 0.00 in0.0 mm
04:42 AM 65.8°F18.8°C 65.5°F18.6°C 73% 0.8 mph NNW1.3 kmh NNW 0.8 mph1.3 kmh 29.94 in1013.9 mb 0.00 in0.0 mm 0.00 in0.0 mm 0.00 in0.0 mm
04:45 AM 66.2°F19.0°C 65.4°F18.6°C 73% Calm Calm -- 29.94 in1013.9 mb 0.00 in0.0 mm 0.00 in0.0 mm 0.00 in0.0 mm
04:48 AM 66.7°F19.3°C 65.8°F18.8°C 73% Calm Calm -- 29.94 in1013.9 mb 0.00 in0.0 mm 0.00 in0.0 mm 0.00 in0.0 mm
04:51 AM 66.5°F19.2°C 65.8°F18.8°C 73% Calm Calm -- 29.94 in1013.9 mb 0.00 in0.0 mm 0.00 in0.0 mm 0.00 in0.0 mm
04:54 AM 66.8°F19.3°C 65.0°F18.3°C 72% Calm Calm -- 29.95 in1014.2 mb 0.00 in0.0 mm 0.00 in0.0 mm 0.00 in0.0 mm
04:57 AM 67.3°F19.6°C 65.9°F18.8°C 73% Calm Calm -- 29.95 in1014.2 mb 0.00 in0.0 mm 0.00 in0.0 mm 0.00 in0.0 mm
05:00 AM 67.0°F19.4°C 66.2°F19.0°C 73% Calm Calm -- 29.95 in1014.2 mb 0.00 in0.0 mm 0.00 in0.0 mm 0.00 in0.0 mm
05:03 AM 67.4°F19.7°C 66.2°F19.0°C 73% Calm Calm -- 29.94 in1013.9 mb 0.00 in0.0 mm 0.00 in0.0 mm 0.00 in0.0 mm
05:06 AM 67.8°F19.9°C 65.9°F18.8°C 73% Calm Calm -- 29.94 in1013.9 mb 0.00 in0.0 mm 0.00 in0.0 mm 0.00 in0.0 mm
05:09 AM 68.3°F20.2°C 66.1°F18.9°C 74% Calm Calm -- 29.95 in1014.2 mb 0.00 in0.0 mm 0.00 in0.0 mm 0.00 in0.0 mm
05:12 AM 68.6°F20.3°C 66.4°F19.1°C 74% Calm Calm -- 29.95 in1014.2 mb 0.00 in0.0 mm 0.00 in0.0 mm 0.00 in0.0 mm
05:15 AM 68.5°F20.3°C 66.8°F19.3°C 75% Calm Calm -- 29.94 in1013.9 mb 0.00 in0.0 mm 0.00 in0.0 mm 0.00 in0.0 mm
05:18 AM 68.8°F20.4°C 67.4°F19.7°C 76% Calm Calm -- 29.95 in1014.2 mb 0.00 in0.0 mm 0.00 in0.0 mm 0.00 in0.0 mm
05:21 AM 69.0°F20.6°C 68.2°F20.1°C 76% 0.4 mph NE0.6 kmh NE 0.4 mph0.6 kmh 29.94 in1013.9 mb 0.00 in0.0 mm 0.00 in0.0 mm 0.00 in0.0 mm
05:24 AM 69.4°F20.8°C 67.5°F19.7°C 75% Calm Calm -- 29.94 in1013.9 mb 0.00 in0.0 mm 0.00 in0.0 mm 0.00 in0.0 mm
05:27 AM 70.0°F21.1°C 67.7°F19.8°C 75% Calm Calm -- 29.94 in1013.9 mb 0.00 in0.0 mm 0.00 in0.0 mm 0.00 in0.0 mm
05:30 AM 70.1°F21.2°C 68.3°F20.2°C 75% Calm Calm -- 29.94 in1013.9 mb 0.00 in0.0 mm 0.00 in0.0 mm 0.00 in0.0 mm
05:33 AM 70.4°F21.3°C 68.4°F20.2°C 75% Calm Calm -- 29.95 in1014.2 mb 0.00 in0.0 mm 0.00 in0.0 mm 0.00 in0.0 mm
05:36 AM 70.0°F21.1°C 68.7°F20.4°C 74% Calm Calm -- 29.95 in1014.2 mb 0.00 in0.0 mm 0.00 in0.0 mm 0.00 in0.0 mm
05:39 AM 70.8°F21.6°C 69.4°F20.8°C 75% Calm Calm -- 29.95 in1014.2 mb 0.00 in0.0 mm 0.00 in0.0 mm 0.00 in0.0 mm
05:42 AM 71.3°F21.8°C 68.7°F20.4°C 74% 1.2 mph 1.9 kmh 1.2 mph1.9 kmh 29.96 in1014.6 mb 0.00 in0.0 mm 0.00 in0.0 mm 0.00 in0.0 mm
05:45 AM 71.5°F21.9°C 68.0°F20.0°C 72% 0.8 mph 1.3 kmh 0.8 mph1.3 kmh 29.96 in1014.6 mb 0.00 in0.0 mm 0.00 in0.0 mm 0.00 in0.0 mm
05:48 AM 71.4°F21.9°C 67.4°F19.7°C 70% 0.8 mph 1.3 kmh 0.8 mph1.3 kmh 29.95 in1014.2 mb 0.00 in0.0 mm 0.00 in0.0 mm 0.00 in0.0 mm
05:54 AM 71.9°F22.2°C 67.7°F19.8°C 70% Calm Calm -- 29.95 in1014.2 mb 0.00 in0.0 mm 0.00 in0.0 mm 0.00 in0.0 mm
05:57 AM 72.3°F22.4°C 67.5°F19.7°C 70% 0.8 mph 1.3 kmh 0.8 mph1.3 kmh 29.94 in1013.9 mb 0.00 in0.0 mm 0.00 in0.0 mm 0.00 in0.0 mm
06:00 AM 72.3°F22.4°C 67.6°F19.8°C 71% 0.4 mph NNW0.6 kmh NNW 0.4 mph0.6 kmh 29.94 in1013.9 mb 0.00 in0.0 mm 0.00 in0.0 mm 0.00 in0.0 mm
06:03 AM 72.5°F22.5°C 68.4°F20.2°C 70% Calm Calm -- 29.94 in1013.9 mb 0.00 in0.0 mm 0.00 in0.0 mm 0.00 in0.0 mm
06:06 AM 72.7°F22.6°C 68.4°F20.2°C 70% Calm Calm -- 29.94 in1013.9 mb 0.00 in0.0 mm 0.00 in0.0 mm 0.00 in0.0 mm
06:09 AM 72.6°F22.6°C 68.7°F20.4°C 71% Calm Calm -- 29.95 in1014.2 mb 0.00 in0.0 mm 0.00 in0.0 mm 0.00 in0.0 mm
06:12 AM 73.0°F22.8°C 68.6°F20.3°C 70% 0.4 mph NNW0.6 kmh NNW 0.4 mph0.6 kmh 29.95 in1014.2 mb 0.00 in0.0 mm 0.00 in0.0 mm 0.00 in0.0 mm
06:15 AM 73.9°F23.3°C 68.8°F20.4°C 71% 2.4 mph NNW3.9 kmh NNW 2.4 mph3.9 kmh 29.95 in1014.2 mb 0.00 in0.0 mm 0.00 in0.0 mm 0.00 in0.0 mm
06:18 AM 73.6°F23.1°C 69.5°F20.8°C 71% 2.0 mph 3.2 kmh 2.0 mph3.2 kmh 29.95 in1014.2 mb 0.00 in0.0 mm 0.00 in0.0 mm 0.00 in0.0 mm
06:21 AM 73.9°F23.3°C 68.3°F20.2°C 70% 2.0 mph NNW3.2 kmh NNW 2.0 mph3.2 kmh 29.95 in1014.2 mb 0.00 in0.0 mm 0.00 in0.0 mm 0.00 in0.0 mm
06:24 AM 74.5°F23.6°C 69.2°F20.7°C 69% 2.8 mph 4.5 kmh 2.8 mph4.5 kmh 29.96 in1014.6 mb 0.00 in0.0 mm 0.00 in0.0 mm 0.00 in0.0 mm
06:27 AM 74.9°F23.8°C 68.7°F20.4°C 69% 2.8 mph NNW4.5 kmh NNW 2.8 mph4.5 kmh 29.96 in1014.6 mb 0.00 in0.0 mm 0.00 in0.0 mm 0.00 in0.0 mm
06:30 AM 76.2°F24.6°C 70.0°F21.1°C 68% 2.4 mph NNW3.9 kmh NNW 2.5 mph4.0 kmh 29.96 in1014.6 mb 0.00 in0.0 mm 0.00 in0.0 mm 0.00 in0.0 mm
06:33 AM 77.2°F25.1°C 70.1°F21.2°C 69% 1.2 mph NW1.9 kmh NW 1.2 mph1.9 kmh 29.96 in1014.6 mb 0.00 in0.0 mm 0.00 in0.0 mm 0.00 in0.0 mm
06:36 AM 79.1°F26.2°C 69.9°F21.1°C 67% 1.2 mph NW1.9 kmh NW 1.2 mph1.9 kmh 29.96 in1014.6 mb 0.00 in0.0 mm 0.00 in0.0 mm 0.00 in0.0 mm
06:39 AM 78.5°F25.8°C 69.5°F20.8°C 64% 2.4 mph NW3.9 kmh NW 2.4 mph3.9 kmh 29.96 in1014.6 mb 0.00 in0.0 mm 0.00 in0.0 mm 0.00 in0.0 mm
06:42 AM 78.0°F25.6°C 70.8°F21.6°C 65% 1.5 mph NNW2.4 kmh NNW 1.5 mph2.4 kmh 29.96 in1014.6 mb 0.00 in0.0 mm 0.00 in0.0 mm 0.00 in0.0 mm
06:45 AM 77.9°F25.5°C 71.4°F21.9°C 65% 2.8 mph NNW4.5 kmh NNW 2.8 mph4.5 kmh 29.96 in1014.6 mb 0.00 in0.0 mm 0.00 in0.0 mm 0.00 in0.0 mm
06:48 AM 78.1°F25.6°C 71.4°F21.9°C 65% 2.8 mph 4.5 kmh 2.8 mph4.5 kmh 29.96 in1014.6 mb 0.00 in0.0 mm 0.00 in0.0 mm 0.00 in0.0 mm
06:51 AM 77.7°F25.4°C 71.3°F21.8°C 65% Calm Calm -- 29.96 in1014.6 mb 0.00 in0.0 mm 0.00 in0.0 mm 0.00 in0.0 mm
06:54 AM 77.5°F25.3°C 71.3°F21.8°C 65% 3.6 mph NNW5.8 kmh NNW 3.6 mph5.8 kmh 29.96 in1014.6 mb 0.00 in0.0 mm 0.00 in0.0 mm 0.00 in0.0 mm
06:57 AM 77.3°F25.2°C 70.9°F21.6°C 65% 1.6 mph NW2.6 kmh NW 1.6 mph2.6 kmh 29.97 in1014.9 mb 0.00 in0.0 mm 0.00 in0.0 mm 0.00 in0.0 mm
07:00 AM 78.7°F25.9°C 71.4°F21.9°C 66% 2.4 mph W3.9 kmh W 2.4 mph3.9 kmh 29.97 in1014.9 mb 0.00 in0.0 mm 0.00 in0.0 mm 0.00 in0.0 mm
07:03 AM 78.4°F25.8°C 71.2°F21.8°C 66% 2.8 mph NNW4.5 kmh NNW 2.9 mph4.7 kmh 29.97 in1014.9 mb 0.00 in0.0 mm 0.00 in0.0 mm 0.00 in0.0 mm
07:09 AM 78.4°F25.8°C 71.0°F21.7°C 66% 3.2 mph W5.1 kmh W 3.3 mph5.3 kmh 29.98 in1015.2 mb 0.00 in0.0 mm 0.00 in0.0 mm 0.00 in0.0 mm
07:12 AM 78.5°F25.8°C 70.4°F21.3°C 66% 2.8 mph WNW4.5 kmh WNW 2.8 mph4.5 kmh 29.98 in1015.2 mb 0.00 in0.0 mm 0.00 in0.0 mm 0.00 in0.0 mm
07:18 AM 77.6°F25.3°C 71.1°F21.7°C 65% 2.8 mph 4.5 kmh 2.8 mph4.5 kmh 29.97 in1014.9 mb 0.00 in0.0 mm 0.00 in0.0 mm 0.00 in0.0 mm
07:21 AM 79.3°F26.3°C 71.8°F22.1°C 66% 2.4 mph NNW3.9 kmh NNW 2.4 mph3.9 kmh 29.98 in1015.2 mb 0.00 in0.0 mm 0.00 in0.0 mm 0.00 in0.0 mm
07:24 AM 77.5°F25.3°C 71.4°F21.9°C 65% 4.0 mph NW6.4 kmh NW 4.0 mph6.4 kmh 29.97 in1014.9 mb 0.00 in0.0 mm 0.00 in0.0 mm 0.00 in0.0 mm
07:27 AM 78.4°F25.8°C 70.4°F21.3°C 64% 2.8 mph WNW4.5 kmh WNW 2.8 mph4.5 kmh 29.98 in1015.2 mb 0.00 in0.0 mm 0.00 in0.0 mm 0.00 in0.0 mm
07:30 AM 78.2°F25.7°C 70.7°F21.5°C 65% 3.1 mph NW5.0 kmh NW 3.2 mph5.1 kmh 29.99 in1015.6 mb 0.00 in0.0 mm 0.00 in0.0 mm 0.00 in0.0 mm
07:33 AM 77.9°F25.5°C 71.4°F21.9°C 65% 4.7 mph NNW7.6 kmh NNW 4.7 mph7.6 kmh 29.99 in1015.6 mb 0.00 in0.0 mm 0.00 in0.0 mm 0.00 in0.0 mm
07:36 AM 78.9°F26.1°C 71.5°F21.9°C 65% 4.0 mph W6.4 kmh W 4.1 mph6.6 kmh 29.99 in1015.6 mb 0.00 in0.0 mm 0.00 in0.0 mm 0.00 in0.0 mm
07:39 AM 78.8°F26.0°C 71.3°F21.8°C 65% 2.8 mph WSW4.5 kmh WSW 2.9 mph4.7 kmh 29.99 in1015.6 mb 0.00 in0.0 mm 0.00 in0.0 mm 0.00 in0.0 mm
07:42 AM 79.9°F26.6°C 71.7°F22.1°C 65% 2.4 mph NW3.9 kmh NW 2.4 mph3.9 kmh 29.99 in1015.6 mb 0.00 in0.0 mm 0.00 in0.0 mm 0.00 in0.0 mm
07:45 AM 79.5°F26.4°C 70.8°F21.6°C 65% 1.2 mph NNW1.9 kmh NNW 1.2 mph1.9 kmh 29.99 in1015.6 mb 0.00 in0.0 mm 0.00 in0.0 mm 0.00 in0.0 mm
07:48 AM 79.4°F26.3°C 70.9°F21.6°C 65% 3.2 mph WNW5.1 kmh WNW 3.2 mph5.1 kmh 29.99 in1015.6 mb 0.00 in0.0 mm 0.00 in0.0 mm 0.00 in0.0 mm
07:51 AM 79.4°F26.3°C 70.7°F21.5°C 64% 3.4 mph NW5.5 kmh NW 3.5 mph5.6 kmh 29.99 in1015.6 mb 0.00 in0.0 mm 0.00 in0.0 mm 0.00 in0.0 mm
07:54 AM 79.9°F26.6°C 71.2°F21.8°C 64% 1.6 mph NW2.6 kmh NW 1.6 mph2.6 kmh 29.98 in1015.2 mb 0.00 in0.0 mm 0.00 in0.0 mm 0.00 in0.0 mm
07:57 AM 80.0°F26.7°C 71.3°F21.8°C 64% 3.6 mph WNW5.8 kmh WNW 3.7 mph6.0 kmh 29.97 in1014.9 mb 0.00 in0.0 mm 0.00 in0.0 mm 0.00 in0.0 mm
08:00 AM 79.6°F26.4°C 71.4°F21.9°C 63% 3.6 mph WNW5.8 kmh WNW 3.7 mph6.0 kmh 29.97 in1014.9 mb 0.00 in0.0 mm 0.00 in0.0 mm 0.00 in0.0 mm
08:03 AM 79.4°F26.3°C 71.4°F21.9°C 64% 0.8 mph NNW1.3 kmh NNW 0.8 mph1.3 kmh 29.96 in1014.6 mb 0.00 in0.0 mm 0.00 in0.0 mm 0.00 in0.0 mm
08:06 AM 79.8°F26.6°C 71.0°F21.7°C 63% 3.2 mph NNE5.1 kmh NNE 3.2 mph5.1 kmh 29.96 in1014.6 mb 0.00 in0.0 mm 0.00 in0.0 mm 0.00 in0.0 mm
08:09 AM 80.0°F26.7°C 71.2°F21.8°C 63% 4.4 mph 7.1 kmh 4.4 mph7.1 kmh 29.96 in1014.6 mb 0.00 in0.0 mm 0.00 in0.0 mm 0.00 in0.0 mm
08:12 AM 80.3°F26.8°C 70.8°F21.6°C 62% 1.5 mph NNW2.4 kmh NNW 1.6 mph2.6 kmh 29.96 in1014.6 mb 0.00 in0.0 mm 0.00 in0.0 mm 0.00 in0.0 mm
08:15 AM 80.3°F26.8°C 72.1°F22.3°C 63% 2.0 mph 3.2 kmh 2.0 mph3.2 kmh 29.96 in1014.6 mb 0.00 in0.0 mm 0.00 in0.0 mm 0.00 in0.0 mm
08:18 AM 78.7°F25.9°C 71.6°F22.0°C 63% 4.4 mph NNE7.1 kmh NNE 4.5 mph7.2 kmh 29.96 in1014.6 mb 0.00 in0.0 mm 0.00 in0.0 mm 0.00 in0.0 mm
08:21 AM 79.7°F26.5°C 71.4°F21.9°C 62% 1.2 mph NNW1.9 kmh NNW 1.2 mph1.9 kmh 29.96 in1014.6 mb 0.00 in0.0 mm 0.00 in0.0 mm 0.00 in0.0 mm
08:24 AM 80.5°F26.9°C 71.3°F21.8°C 62% 2.0 mph NW3.2 kmh NW 2.0 mph3.2 kmh 29.96 in1014.6 mb 0.00 in0.0 mm 0.00 in0.0 mm 0.00 in0.0 mm
08:27 AM 80.0°F26.7°C 71.9°F22.2°C 63% 3.6 mph WNW5.8 kmh WNW 3.7 mph6.0 kmh 29.96 in1014.6 mb 0.00 in0.0 mm 0.00 in0.0 mm 0.00 in0.0 mm
08:30 AM 79.6°F26.4°C 71.5°F21.9°C 62% 2.8 mph NNW4.5 kmh NNW 2.9 mph4.7 kmh 29.96 in1014.6 mb 0.00 in0.0 mm 0.00 in0.0 mm 0.00 in0.0 mm
08:33 AM 80.0°F26.7°C 71.6°F22.0°C 62% 1.6 mph NNW2.6 kmh NNW 1.6 mph2.6 kmh 29.97 in1014.9 mb 0.00 in0.0 mm 0.00 in0.0 mm 0.00 in0.0 mm
08:36 AM 79.9°F26.6°C 70.9°F21.6°C 62% 1.6 mph NNW2.6 kmh NNW 1.6 mph2.6 kmh 29.97 in1014.9 mb 0.00 in0.0 mm 0.00 in0.0 mm 0.00 in0.0 mm
08:39 AM 79.8°F26.6°C 71.9°F22.2°C 62% 1.2 mph W1.9 kmh W 1.2 mph1.9 kmh 29.97 in1014.9 mb 0.00 in0.0 mm 0.00 in0.0 mm 0.00 in0.0 mm
08:42 AM 80.5°F26.9°C 71.7°F22.1°C 62% 3.4 mph WSW5.5 kmh WSW 3.4 mph5.5 kmh 29.98 in1015.2 mb 0.00 in0.0 mm 0.00 in0.0 mm 0.00 in0.0 mm
08:45 AM 80.5°F26.9°C 72.0°F22.2°C 63% 4.7 mph WSW7.6 kmh WSW 4.7 mph7.6 kmh 29.99 in1015.6 mb 0.00 in0.0 mm 0.00 in0.0 mm 0.00 in0.0 mm
08:48 AM 80.6°F27.0°C 72.2°F22.3°C 63% 3.8 mph W6.1 kmh W 4.1 mph6.6 kmh 29.98 in1015.2 mb 0.00 in0.0 mm 0.00 in0.0 mm 0.00 in0.0 mm
08:51 AM 81.7°F27.6°C 71.7°F22.1°C 62% 2.3 mph WSW3.7 kmh WSW 2.3 mph3.7 kmh 29.99 in1015.6 mb 0.00 in0.0 mm 0.00 in0.0 mm 0.00 in0.0 mm
08:54 AM 81.8°F27.7°C 71.0°F21.7°C 61% 3.1 mph NNW5.0 kmh NNW 3.1 mph5.0 kmh 29.99 in1015.6 mb 0.00 in0.0 mm 0.00 in0.0 mm 0.00 in0.0 mm
08:57 AM 82.9°F28.3°C 71.4°F21.9°C 61% 0.8 mph WNW1.3 kmh WNW 0.8 mph1.3 kmh 29.99 in1015.6 mb 0.00 in0.0 mm 0.00 in0.0 mm 0.00 in0.0 mm
09:00 AM 83.3°F28.5°C 70.9°F21.6°C 59% 4.4 mph NW7.1 kmh NW 4.5 mph7.2 kmh 29.99 in1015.6 mb 0.00 in0.0 mm 0.00 in0.0 mm 0.00 in0.0 mm
09:03 AM 82.9°F28.3°C 70.7°F21.5°C 58% 2.8 mph NW4.5 kmh NW 2.9 mph4.7 kmh 30.00 in1015.9 mb 0.00 in0.0 mm 0.00 in0.0 mm 0.00 in0.0 mm
09:06 AM 84.0°F28.9°C 70.9°F21.6°C 58% 2.0 mph NNW3.2 kmh NNW 2.0 mph3.2 kmh 30.00 in1015.9 mb 0.00 in0.0 mm 0.00 in0.0 mm 0.00 in0.0 mm
09:09 AM 83.9°F28.8°C 70.5°F21.4°C 57% 2.4 mph NNW3.9 kmh NNW 2.4 mph3.9 kmh 30.00 in1015.9 mb 0.00 in0.0 mm 0.00 in0.0 mm 0.00 in0.0 mm
09:12 AM 82.6°F28.1°C 69.1°F20.6°C 55% 6.5 mph NNW10.5 kmh NNW 6.5 mph10.5 kmh 29.99 in1015.6 mb 0.00 in0.0 mm 0.00 in0.0 mm 0.00 in0.0 mm
09:15 AM 83.8°F28.8°C 69.6°F20.9°C 56% 6.5 mph WNW10.5 kmh WNW 6.5 mph10.5 kmh 29.99 in1015.6 mb 0.00 in0.0 mm 0.00 in0.0 mm 0.00 in0.0 mm
09:18 AM 83.3°F28.5°C 70.2°F21.2°C 55% 5.2 mph NNW8.4 kmh NNW 5.2 mph8.4 kmh 29.99 in1015.6 mb 0.00 in0.0 mm 0.00 in0.0 mm 0.00 in0.0 mm
09:21 AM 85.1°F29.5°C 70.5°F21.4°C 57% 5.6 mph NW9.0 kmh NW 5.7 mph9.2 kmh 29.99 in1015.6 mb 0.00 in0.0 mm 0.00 in0.0 mm 0.00 in0.0 mm
09:24 AM 82.7°F28.2°C 69.4°F20.8°C 54% 8.5 mph NNW13.7 kmh NNW 8.6 mph13.8 kmh 29.99 in1015.6 mb 0.00 in0.0 mm 0.00 in0.0 mm 0.00 in0.0 mm
09:27 AM 82.0°F27.8°C 69.3°F20.7°C 54% 6.0 mph NNW9.7 kmh NNW 6.0 mph9.7 kmh 30.00 in1015.9 mb 0.00 in0.0 mm 0.00 in0.0 mm 0.00 in0.0 mm
09:30 AM 82.5°F28.1°C 70.6°F21.4°C 56% 8.7 mph WSW14.0 kmh WSW 8.7 mph14.0 kmh 30.00 in1015.9 mb 0.00 in0.0 mm 0.00 in0.0 mm 0.00 in0.0 mm
09:33 AM 81.6°F27.6°C 70.2°F21.2°C 55% 3.2 mph W5.1 kmh W 3.3 mph5.3 kmh 30.00 in1015.9 mb 0.00 in0.0 mm 0.00 in0.0 mm 0.00 in0.0 mm
09:36 AM 82.2°F27.9°C 70.2°F21.2°C 56% 5.2 mph WNW8.4 kmh WNW 5.2 mph8.4 kmh 30.00 in1015.9 mb 0.00 in0.0 mm 0.00 in0.0 mm 0.00 in0.0 mm
09:39 AM 83.9°F28.8°C 71.0°F21.7°C 56% 4.0 mph W6.4 kmh W 4.1 mph6.6 kmh 30.00 in1015.9 mb 0.00 in0.0 mm 0.00 in0.0 mm 0.00 in0.0 mm
09:42 AM 84.5°F29.2°C 71.3°F21.8°C 56% 5.7 mph NNW9.2 kmh NNW 5.7 mph9.2 kmh 30.00 in1015.9 mb 0.00 in0.0 mm 0.00 in0.0 mm 0.00 in0.0 mm
09:45 AM 84.1°F28.9°C 70.2°F21.2°C 55% 6.1 mph NW9.8 kmh NW 6.1 mph9.8 kmh 30.01 in1016.3 mb 0.00 in0.0 mm 0.00 in0.0 mm 0.00 in0.0 mm
09:48 AM 84.1°F28.9°C 70.0°F21.1°C 55% 3.6 mph NW5.8 kmh NW 3.6 mph5.8 kmh 30.01 in1016.3 mb 0.00 in0.0 mm 0.00 in0.0 mm 0.00 in0.0 mm
09:51 AM 83.6°F28.7°C 70.2°F21.2°C 55% 5.6 mph NW9.0 kmh NW 5.6 mph9.0 kmh 30.01 in1016.3 mb 0.00 in0.0 mm 0.00 in0.0 mm 0.00 in0.0 mm
09:54 AM 81.5°F27.5°C 70.0°F21.1°C 54% 4.0 mph WNW6.4 kmh WNW 4.1 mph6.6 kmh 30.00 in1015.9 mb 0.00 in0.0 mm 0.00 in0.0 mm 0.00 in0.0 mm
09:57 AM 81.4°F27.4°C 70.1°F21.2°C 54% 5.6 mph NNW9.0 kmh NNW 5.6 mph9.0 kmh 30.00 in1015.9 mb 0.00 in0.0 mm 0.00 in0.0 mm 0.00 in0.0 mm
10:00 AM 80.9°F27.2°C 69.4°F20.8°C 54% 2.8 mph NNW4.5 kmh NNW 2.9 mph4.7 kmh 30.00 in1015.9 mb 0.00 in0.0 mm 0.00 in0.0 mm 0.00 in0.0 mm
10:03 AM 81.7°F27.6°C 69.6°F20.9°C 55% 6.6 mph NNW10.6 kmh NNW 6.7 mph10.8 kmh 30.00 in1015.9 mb 0.00 in0.0 mm 0.00 in0.0 mm 0.00 in0.0 mm
10:06 AM 83.5°F28.6°C 71.1°F21.7°C 56% 4.9 mph NW7.9 kmh NW 4.9 mph7.9 kmh 30.00 in1015.9 mb 0.00 in0.0 mm 0.00 in0.0 mm 0.00 in0.0 mm
10:09 AM 84.2°F29.0°C 70.8°F21.6°C 55% 3.4 mph W5.5 kmh W 3.4 mph5.5 kmh 30.00 in1015.9 mb 0.00 in0.0 mm 0.00 in0.0 mm 0.00 in0.0 mm
10:15 AM 84.7°F29.3°C 70.2°F21.2°C 52% 4.1 mph NNW6.6 kmh NNW 4.1 mph6.6 kmh 29.99 in1015.6 mb 0.00 in0.0 mm 0.00 in0.0 mm 0.00 in0.0 mm
10:18 AM 82.7°F28.2°C 69.5°F20.8°C 50% 6.9 mph NNW11.1 kmh NNW 6.9 mph11.1 kmh 29.99 in1015.6 mb 0.00 in0.0 mm 0.00 in0.0 mm 0.00 in0.0 mm
10:21 AM 83.2°F28.4°C 69.2°F20.7°C 50% 4.8 mph NW7.7 kmh NW 4.9 mph7.9 kmh 29.99 in1015.6 mb 0.00 in0.0 mm 0.00 in0.0 mm 0.00 in0.0 mm
10:24 AM 82.6°F28.1°C 69.2°F20.7°C 50% 4.4 mph NW7.1 kmh NW 4.5 mph7.2 kmh 29.99 in1015.6 mb 0.00 in0.0 mm 0.00 in0.0 mm 0.00 in0.0 mm
10:27 AM 83.1°F28.4°C 70.1°F21.2°C 53% 7.6 mph NNW12.2 kmh NNW 7.6 mph12.2 kmh 29.99 in1015.6 mb 0.00 in0.0 mm 0.00 in0.0 mm 0.00 in0.0 mm
10:30 AM 83.5°F28.6°C 70.3°F21.3°C 53% 6.1 mph NNW9.8 kmh NNW 6.1 mph9.8 kmh 29.99 in1015.6 mb 0.00 in0.0 mm 0.00 in0.0 mm 0.00 in0.0 mm
10:33 AM 83.2°F28.4°C 69.8°F21.0°C 51% 4.4 mph WNW7.1 kmh WNW 4.4 mph7.1 kmh 29.99 in1015.6 mb 0.00 in0.0 mm 0.00 in0.0 mm 0.00 in0.0 mm
10:36 AM 84.0°F28.9°C 70.6°F21.4°C 52% 3.2 mph W5.1 kmh W 3.3 mph5.3 kmh 29.99 in1015.6 mb 0.00 in0.0 mm 0.00 in0.0 mm 0.00 in0.0 mm
10:39 AM 84.2°F29.0°C 70.9°F21.6°C 52% 5.6 mph WNW9.0 kmh WNW 5.6 mph9.0 kmh 29.99 in1015.6 mb 0.00 in0.0 mm 0.00 in0.0 mm 0.00 in0.0 mm
10:42 AM 83.6°F28.7°C 70.2°F21.2°C 50% 4.0 mph W6.4 kmh W 4.1 mph6.6 kmh 29.98 in1015.2 mb 0.00 in0.0 mm 0.00 in0.0 mm 0.00 in0.0 mm
10:45 AM 85.0°F29.4°C 71.1°F21.7°C 51% 5.4 mph W8.7 kmh W 5.4 mph8.7 kmh 29.99 in1015.6 mb 0.00 in0.0 mm 0.00 in0.0 mm 0.00 in0.0 mm
10:48 AM 84.0°F28.9°C 70.0°F21.1°C 49% 3.9 mph NW6.3 kmh NW 4.0 mph6.4 kmh 29.98 in1015.2 mb 0.00 in0.0 mm 0.00 in0.0 mm 0.00 in0.0 mm
10:54 AM 83.5°F28.6°C 70.2°F21.2°C 49% 5.7 mph SW9.2 kmh SW 5.7 mph9.2 kmh 29.98 in1015.2 mb 0.00 in0.0 mm 0.00 in0.0 mm 0.00 in0.0 mm
10:57 AM 84.3°F29.1°C 70.2°F21.2°C 49% 6.8 mph WSW10.9 kmh WSW 6.8 mph10.9 kmh 29.98 in1015.2 mb 0.00 in0.0 mm 0.00 in0.0 mm 0.00 in0.0 mm
11:00 AM 85.0°F29.4°C 69.9°F21.1°C 49% 4.0 mph WNW6.4 kmh WNW 4.1 mph6.6 kmh 29.98 in1015.2 mb 0.00 in0.0 mm 0.00 in0.0 mm 0.00 in0.0 mm
11:03 AM 86.3°F30.2°C 71.0°F21.7°C 50% 4.8 mph WNW7.7 kmh WNW 4.9 mph7.9 kmh 29.99 in1015.6 mb 0.00 in0.0 mm 0.00 in0.0 mm 0.00 in0.0 mm
11:06 AM 84.9°F29.4°C 70.7°F21.5°C 49% 6.4 mph WSW10.3 kmh WSW 6.4 mph10.3 kmh 29.99 in1015.6 mb 0.00 in0.0 mm 0.00 in0.0 mm 0.00 in0.0 mm
11:09 AM 85.2°F29.6°C 70.0°F21.1°C 48% 7.6 mph NNW12.2 kmh NNW 7.6 mph12.2 kmh 29.99 in1015.6 mb 0.00 in0.0 mm 0.00 in0.0 mm 0.00 in0.0 mm
11:12 AM 85.1°F29.5°C 70.9°F21.6°C 48% 5.2 mph NW8.4 kmh NW 5.2 mph8.4 kmh 29.99 in1015.6 mb 0.00 in0.0 mm 0.00 in0.0 mm 0.00 in0.0 mm
11:15 AM 86.2°F30.1°C 71.7°F22.1°C 49% 6.3 mph NNW10.1 kmh NNW 6.4 mph10.3 kmh 29.99 in1015.6 mb 0.00 in0.0 mm 0.00 in0.0 mm 0.00 in0.0 mm
11:18 AM 84.7°F29.3°C 70.4°F21.3°C 47% 4.8 mph NNW7.7 kmh NNW 4.9 mph7.9 kmh 29.99 in1015.6 mb 0.00 in0.0 mm 0.00 in0.0 mm 0.00 in0.0 mm
11:21 AM 85.4°F29.7°C 71.4°F21.9°C 49% 4.5 mph WSW7.2 kmh WSW 4.5 mph7.2 kmh 29.99 in1015.6 mb 0.00 in0.0 mm 0.00 in0.0 mm 0.00 in0.0 mm
11:24 AM 85.7°F29.8°C 71.3°F21.8°C 48% 1.6 mph NNW2.6 kmh NNW 1.6 mph2.6 kmh 29.99 in1015.6 mb 0.00 in0.0 mm 0.00 in0.0 mm 0.00 in0.0 mm
11:27 AM 85.2°F29.6°C 70.8°F21.6°C 47% 7.5 mph 12.1 kmh 7.6 mph12.2 kmh 29.99 in1015.6 mb 0.00 in0.0 mm 0.00 in0.0 mm 0.00 in0.0 mm
11:30 AM 85.6°F29.8°C 71.0°F21.7°C 48% 7.2 mph NNW11.6 kmh NNW 7.3 mph11.7 kmh 29.99 in1015.6 mb 0.00 in0.0 mm 0.00 in0.0 mm 0.00 in0.0 mm
11:33 AM 84.2°F29.0°C 70.7°F21.5°C 48% 10.4 mph NNW16.7 kmh NNW 10.4 mph16.7 kmh 29.99 in1015.6 mb 0.00 in0.0 mm 0.00 in0.0 mm 0.00 in0.0 mm
11:36 AM 82.1°F27.8°C 69.7°F20.9°C 48% 8.3 mph 13.4 kmh 8.3 mph13.4 kmh 29.99 in1015.6 mb 0.00 in0.0 mm 0.00 in0.0 mm 0.00 in0.0 mm
11:39 AM 84.7°F29.3°C 70.3°F21.3°C 49% 4.2 mph NNW6.8 kmh NNW 4.5 mph7.2 kmh 29.99 in1015.6 mb 0.00 in0.0 mm 0.00 in0.0 mm 0.00 in0.0 mm
11:42 AM 85.2°F29.6°C 71.2°F21.8°C 49% 4.6 mph NNW7.4 kmh NNW 4.6 mph7.4 kmh 29.99 in1015.6 mb 0.00 in0.0 mm 0.00 in0.0 mm 0.00 in0.0 mm
11:45 AM 84.9°F29.4°C 70.6°F21.4°C 48% 6.1 mph NNW9.8 kmh NNW 6.1 mph9.8 kmh 29.99 in1015.6 mb 0.00 in0.0 mm 0.00 in0.0 mm 0.00 in0.0 mm
11:48 AM 85.1°F29.5°C 71.2°F21.8°C 49% 5.8 mph NNW9.3 kmh NNW 5.8 mph9.3 kmh 29.99 in1015.6 mb 0.00 in0.0 mm 0.00 in0.0 mm 0.00 in0.0 mm
11:51 AM 87.1°F30.6°C 72.1°F22.3°C 49% 4.6 mph NNW7.4 kmh NNW 4.7 mph7.6 kmh 29.99 in1015.6 mb 0.00 in0.0 mm 0.00 in0.0 mm 0.00 in0.0 mm
11:54 AM 88.1°F31.2°C 72.2°F22.3°C 48% 1.9 mph NNW3.1 kmh NNW 1.9 mph3.1 kmh 29.97 in1014.9 mb 0.00 in0.0 mm 0.00 in0.0 mm 0.00 in0.0 mm
11:57 AM 86.1°F30.1°C 71.4°F21.9°C 47% 8.0 mph NNW12.9 kmh NNW 8.0 mph12.9 kmh 29.97 in1014.9 mb 0.00 in0.0 mm 0.00 in0.0 mm 0.00 in0.0 mm
12:00 PM 86.2°F30.1°C 71.5°F21.9°C 47% 8.5 mph NW13.7 kmh NW 8.5 mph13.7 kmh 29.97 in1014.9 mb 0.00 in0.0 mm 0.00 in0.0 mm 0.00 in0.0 mm
12:03 PM 84.5°F29.2°C 70.9°F21.6°C 46% 7.3 mph 11.7 kmh 7.4 mph11.9 kmh 29.97 in1014.9 mb 0.00 in0.0 mm 0.00 in0.0 mm 0.00 in0.0 mm
12:06 PM 86.0°F30.0°C 71.6°F22.0°C 47% 4.7 mph NW7.6 kmh NW 4.8 mph7.7 kmh 29.97 in1014.9 mb 0.00 in0.0 mm 0.00 in0.0 mm 0.00 in0.0 mm
12:09 PM 87.1°F30.6°C 72.4°F22.4°C 48% 3.6 mph NW5.8 kmh NW 3.7 mph6.0 kmh 29.97 in1014.9 mb 0.00 in0.0 mm 0.00 in0.0 mm 0.00 in0.0 mm
12:12 PM 87.2°F30.7°C 71.3°F21.8°C 46% 6.9 mph W11.1 kmh W 6.9 mph11.1 kmh 29.97 in1014.9 mb 0.00 in0.0 mm 0.00 in0.0 mm 0.00 in0.0 mm
12:18 PM 85.7°F29.8°C 70.0°F21.1°C 45% 4.9 mph NNW7.9 kmh NNW 4.9 mph7.9 kmh 29.97 in1014.9 mb 0.00 in0.0 mm 0.00 in0.0 mm 0.00 in0.0 mm
12:21 PM 84.8°F29.3°C 70.1°F21.2°C 45% 8.9 mph NW14.3 kmh NW 8.9 mph14.3 kmh 29.97 in1014.9 mb 0.00 in0.0 mm 0.00 in0.0 mm 0.00 in0.0 mm
12:24 PM 85.9°F29.9°C 69.4°F20.8°C 44% 7.3 mph 11.7 kmh 7.3 mph11.7 kmh 29.97 in1014.9 mb 0.00 in0.0 mm 0.00 in0.0 mm 0.00 in0.0 mm
12:27 PM 84.9°F29.4°C 70.5°F21.4°C 46% 7.0 mph WSW11.3 kmh WSW 7.0 mph11.3 kmh 29.97 in1014.9 mb 0.00 in0.0 mm 0.00 in0.0 mm 0.00 in0.0 mm
12:30 PM 86.1°F30.1°C 70.4°F21.3°C 46% 3.6 mph W5.8 kmh W 3.7 mph6.0 kmh 29.97 in1014.9 mb 0.00 in0.0 mm 0.00 in0.0 mm 0.00 in0.0 mm
12:33 PM 85.6°F29.8°C 70.0°F21.1°C 45% 4.0 mph NNW6.4 kmh NNW 4.0 mph6.4 kmh 29.97 in1014.9 mb 0.00 in0.0 mm 0.00 in0.0 mm 0.00 in0.0 mm
12:36 PM 85.3°F29.6°C 69.3°F20.7°C 44% 5.6 mph NW9.0 kmh NW 5.6 mph9.0 kmh 29.97 in1014.9 mb 0.00 in0.0 mm 0.00 in0.0 mm 0.00 in0.0 mm
12:39 PM 84.0°F28.9°C 68.3°F20.2°C 44% 6.9 mph NNW11.1 kmh NNW 6.9 mph11.1 kmh 29.97 in1014.9 mb 0.00 in0.0 mm 0.00 in0.0 mm 0.00 in0.0 mm
12:42 PM 84.0°F28.9°C 68.7°F20.4°C 44% 4.8 mph NW7.7 kmh NW 4.8 mph7.7 kmh 29.97 in1014.9 mb 0.00 in0.0 mm 0.00 in0.0 mm 0.00 in0.0 mm
12:45 PM 83.8°F28.8°C 68.6°F20.3°C 45% 8.1 mph NNW13.0 kmh NNW 8.1 mph13.0 kmh 29.98 in1015.2 mb 0.00 in0.0 mm 0.00 in0.0 mm 0.00 in0.0 mm
12:48 PM 83.9°F28.8°C 68.8°F20.4°C 46% 4.4 mph NNW7.1 kmh NNW 4.5 mph7.2 kmh 29.98 in1015.2 mb 0.00 in0.0 mm 0.00 in0.0 mm 0.00 in0.0 mm
12:51 PM 83.3°F28.5°C 69.1°F20.6°C 47% 4.8 mph W7.7 kmh W 4.8 mph7.7 kmh 29.99 in1015.6 mb 0.00 in0.0 mm 0.00 in0.0 mm 0.00 in0.0 mm
12:54 PM 83.9°F28.8°C 69.0°F20.6°C 47% 3.6 mph SW5.8 kmh SW 3.7 mph6.0 kmh 29.99 in1015.6 mb 0.00 in0.0 mm 0.00 in0.0 mm 0.00 in0.0 mm
12:57 PM 83.0°F28.3°C 69.3°F20.7°C 47% 4.8 mph NNW7.7 kmh NNW 4.8 mph7.7 kmh 29.99 in1015.6 mb 0.00 in0.0 mm 0.00 in0.0 mm 0.00 in0.0 mm
01:00 PM 84.8°F29.3°C 69.3°F20.7°C 47% 2.3 mph W3.7 kmh W 2.3 mph3.7 kmh 29.99 in1015.6 mb 0.00 in0.0 mm 0.00 in0.0 mm 0.00 in0.0 mm
01:03 PM 85.0°F29.4°C 69.2°F20.7°C 47% 2.4 mph NW3.9 kmh NW 2.4 mph3.9 kmh 29.99 in1015.6 mb 0.00 in0.0 mm 0.00 in0.0 mm 0.00 in0.0 mm
01:06 PM 85.6°F29.8°C 69.7°F20.9°C 47% 5.2 mph NW8.4 kmh NW 5.2 mph8.4 kmh 29.98 in1015.2 mb 0.00 in0.0 mm 0.00 in0.0 mm 0.00 in0.0 mm
01:09 PM 86.0°F30.0°C 70.4°F21.3°C 48% 9.6 mph NW15.4 kmh NW 9.7 mph15.6 kmh 29.98 in1015.2 mb 0.00 in0.0 mm 0.00 in0.0 mm 0.00 in0.0 mm
01:12 PM 84.9°F29.4°C 68.1°F20.1°C 44% 4.4 mph NW7.1 kmh NW 4.4 mph7.1 kmh 29.98 in1015.2 mb 0.00 in0.0 mm 0.00 in0.0 mm 0.00 in0.0 mm
01:18 PM 84.0°F28.9°C 67.8°F19.9°C 45% 3.2 mph W5.1 kmh W 3.2 mph5.1 kmh 29.98 in1015.2 mb 0.00 in0.0 mm 0.00 in0.0 mm 0.00 in0.0 mm
01:21 PM 83.5°F28.6°C 67.8°F19.9°C 45% 2.8 mph NNW4.5 kmh NNW 2.8 mph4.5 kmh 29.97 in1014.9 mb 0.00 in0.0 mm 0.00 in0.0 mm 0.00 in0.0 mm
01:27 PM 83.4°F28.6°C 68.2°F20.1°C 46% 5.7 mph WNW9.2 kmh WNW 5.7 mph9.2 kmh 29.97 in1014.9 mb 0.00 in0.0 mm 0.00 in0.0 mm 0.00 in0.0 mm
01:30 PM 84.0°F28.9°C 68.7°F20.4°C 47% 3.6 mph NW5.8 kmh NW 3.6 mph5.8 kmh 29.97 in1014.9 mb 0.00 in0.0 mm 0.00 in0.0 mm 0.00 in0.0 mm
01:33 PM 85.1°F29.5°C 68.6°F20.3°C 45% 5.9 mph 9.5 kmh 5.9 mph9.5 kmh 29.97 in1014.9 mb 0.00 in0.0 mm 0.00 in0.0 mm 0.00 in0.0 mm
01:36 PM 83.9°F28.8°C 67.7°F19.8°C 44% 7.7 mph NNW12.4 kmh NNW 7.8 mph12.6 kmh 29.97 in1014.9 mb 0.00 in0.0 mm 0.00 in0.0 mm 0.00 in0.0 mm
01:39 PM 84.1°F28.9°C 68.9°F20.5°C 45% 4.0 mph 6.4 kmh 4.1 mph6.6 kmh 29.97 in1014.9 mb 0.00 in0.0 mm 0.00 in0.0 mm 0.00 in0.0 mm
01:48 PM 82.7°F28.2°C 68.2°F20.1°C 44% 6.9 mph 11.1 kmh 6.9 mph11.1 kmh 29.97 in1014.9 mb 0.00 in0.0 mm 0.00 in0.0 mm 0.00 in0.0 mm
01:51 PM 83.9°F28.8°C 68.4°F20.2°C 44% 2.4 mph WSW3.9 kmh WSW 2.4 mph3.9 kmh 29.97 in1014.9 mb 0.00 in0.0 mm 0.00 in0.0 mm 0.00 in0.0 mm
01:54 PM 84.7°F29.3°C 68.7°F20.4°C 44% 5.6 mph WNW9.0 kmh WNW 5.6 mph9.0 kmh 29.97 in1014.9 mb 0.00 in0.0 mm 0.00 in0.0 mm 0.00 in0.0 mm
01:57 PM 85.0°F29.4°C 68.7°F20.4°C 44% 5.4 mph NW8.7 kmh NW 5.4 mph8.7 kmh 29.97 in1014.9 mb 0.00 in0.0 mm 0.00 in0.0 mm 0.00 in0.0 mm
02:00 PM 84.2°F29.0°C 68.8°F20.4°C 44% 3.8 mph 6.1 kmh 4.1 mph6.6 kmh 29.97 in1014.9 mb 0.00 in0.0 mm 0.00 in0.0 mm 0.00 in0.0 mm
02:03 PM 83.8°F28.8°C 68.9°F20.5°C 44% 4.4 mph WNW7.1 kmh WNW 4.4 mph7.1 kmh 29.97 in1014.9 mb 0.00 in0.0 mm 0.00 in0.0 mm 0.00 in0.0 mm
02:06 PM 84.1°F28.9°C 67.8°F19.9°C 42% 4.8 mph NNW7.7 kmh NNW 4.8 mph7.7 kmh 29.97 in1014.9 mb 0.00 in0.0 mm 0.00 in0.0 mm 0.00 in0.0 mm
02:09 PM 84.4°F29.1°C 69.3°F20.7°C 44% 4.5 mph WNW7.2 kmh WNW 4.5 mph7.2 kmh 29.97 in1014.9 mb 0.00 in0.0 mm 0.00 in0.0 mm 0.00 in0.0 mm
02:12 PM 83.1°F28.4°C 68.4°F20.2°C 43% 5.6 mph 9.0 kmh 5.6 mph9.0 kmh 29.97 in1014.9 mb 0.00 in0.0 mm 0.00 in0.0 mm 0.00 in0.0 mm
02:15 PM 84.2°F29.0°C 68.4°F20.2°C 43% 6.4 mph W10.3 kmh W 6.4 mph10.3 kmh 29.98 in1015.2 mb 0.00 in0.0 mm 0.00 in0.0 mm 0.00 in0.0 mm
02:18 PM 85.4°F29.7°C 69.1°F20.6°C 43% 5.6 mph NNW9.0 kmh NNW 5.6 mph9.0 kmh 29.97 in1014.9 mb 0.00 in0.0 mm 0.00 in0.0 mm 0.00 in0.0 mm
02:21 PM 85.3°F29.6°C 69.3°F20.7°C 43% 3.2 mph NNW5.1 kmh NNW 3.2 mph5.1 kmh 29.98 in1015.2 mb 0.00 in0.0 mm 0.00 in0.0 mm 0.00 in0.0 mm
02:24 PM 85.2°F29.6°C 67.9°F19.9°C 41% 9.2 mph NW14.8 kmh NW 9.3 mph15.0 kmh 29.97 in1014.9 mb 0.00 in0.0 mm 0.00 in0.0 mm 0.00 in0.0 mm
02:27 PM 84.3°F29.1°C 66.9°F19.4°C 40% 6.1 mph WNW9.8 kmh WNW 6.1 mph9.8 kmh 29.98 in1015.2 mb 0.00 in0.0 mm 0.00 in0.0 mm 0.00 in0.0 mm
02:30 PM 83.5°F28.6°C 66.4°F19.1°C 39% 9.7 mph 15.6 kmh 9.8 mph15.8 kmh 29.98 in1015.2 mb 0.00 in0.0 mm 0.00 in0.0 mm 0.00 in0.0 mm
02:33 PM 84.1°F28.9°C 67.4°F19.7°C 41% 3.2 mph NNW5.1 kmh NNW 3.2 mph5.1 kmh 29.97 in1014.9 mb 0.00 in0.0 mm 0.00 in0.0 mm 0.00 in0.0 mm
02:36 PM 83.6°F28.7°C 68.0°F20.0°C 42% 4.0 mph 6.4 kmh 4.0 mph6.4 kmh 29.98 in1015.2 mb 0.00 in0.0 mm 0.00 in0.0 mm 0.00 in0.0 mm
02:39 PM 84.2°F29.0°C 67.6°F19.8°C 41% 5.6 mph NNW9.0 kmh NNW 5.6 mph9.0 kmh 29.98 in1015.2 mb 0.00 in0.0 mm 0.00 in0.0 mm 0.00 in0.0 mm
02:45 PM 84.7°F29.3°C 67.4°F19.7°C 41% 3.6 mph NNW5.8 kmh NNW 3.6 mph5.8 kmh 29.98 in1015.2 mb 0.00 in0.0 mm 0.00 in0.0 mm 0.00 in0.0 mm
02:48 PM 85.1°F29.5°C 67.1°F19.5°C 40% 2.4 mph NW3.9 kmh NW 2.4 mph3.9 kmh 29.97 in1014.9 mb 0.00 in0.0 mm 0.00 in0.0 mm 0.00 in0.0 mm
02:51 PM 84.8°F29.3°C 67.5°F19.7°C 41% 8.0 mph NNW12.9 kmh NNW 8.0 mph12.9 kmh 29.97 in1014.9 mb 0.00 in0.0 mm 0.00 in0.0 mm 0.00 in0.0 mm
02:54 PM 85.0°F29.4°C 67.8°F19.9°C 41% 3.6 mph WNW5.8 kmh WNW 3.6 mph5.8 kmh 29.98 in1015.2 mb 0.00 in0.0 mm 0.00 in0.0 mm 0.00 in0.0 mm
02:57 PM 84.5°F29.2°C 67.0°F19.4°C 40% 6.4 mph NW10.3 kmh NW 6.4 mph10.3 kmh 29.98 in1015.2 mb 0.00 in0.0 mm 0.00 in0.0 mm 0.00 in0.0 mm
03:00 PM 85.4°F29.7°C 67.3°F19.6°C 41% 6.9 mph NW11.1 kmh NW 6.9 mph11.1 kmh 29.98 in1015.2 mb 0.00 in0.0 mm 0.00 in0.0 mm 0.00 in0.0 mm
03:03 PM 85.4°F29.7°C 67.8°F19.9°C 41% 6.8 mph W10.9 kmh W 6.8 mph10.9 kmh 29.98 in1015.2 mb 0.00 in0.0 mm 0.00 in0.0 mm 0.00 in0.0 mm
03:06 PM 83.9°F28.8°C 66.6°F19.2°C 40% 7.6 mph NNW12.2 kmh NNW 7.6 mph12.2 kmh 29.98 in1015.2 mb 0.00 in0.0 mm 0.00 in0.0 mm 0.00 in0.0 mm
03:09 PM 84.3°F29.1°C 66.3°F19.1°C 40% 4.9 mph 7.9 kmh 4.9 mph7.9 kmh 29.99 in1015.6 mb 0.00 in0.0 mm 0.00 in0.0 mm 0.00 in0.0 mm
03:12 PM 84.9°F29.4°C 66.8°F19.3°C 40% 6.1 mph WNW9.8 kmh WNW 6.1 mph9.8 kmh 29.98 in1015.2 mb 0.00 in0.0 mm 0.00 in0.0 mm 0.00 in0.0 mm
03:15 PM 85.2°F29.6°C 66.5°F19.2°C 40% 6.0 mph W9.7 kmh W 6.1 mph9.8 kmh 29.97 in1014.9 mb 0.00 in0.0 mm 0.00 in0.0 mm 0.00 in0.0 mm
03:18 PM 85.9°F29.9°C 67.0°F19.4°C 40% 9.6 mph W15.4 kmh W 9.6 mph15.4 kmh 29.97 in1014.9 mb 0.00 in0.0 mm 0.00 in0.0 mm 0.00 in0.0 mm
03:21 PM 83.9°F28.8°C 66.7°F19.3°C 41% 10.3 mph 16.6 kmh 10.4 mph16.7 kmh 29.98 in1015.2 mb 0.00 in0.0 mm 0.00 in0.0 mm 0.00 in0.0 mm
03:24 PM 83.8°F28.8°C 67.1°F19.5°C 41% 3.6 mph 5.8 kmh 3.6 mph5.8 kmh 29.97 in1014.9 mb 0.00 in0.0 mm 0.00 in0.0 mm 0.00 in0.0 mm
03:27 PM 83.3°F28.5°C 67.2°F19.6°C 42% 2.8 mph NNW4.5 kmh NNW 2.8 mph4.5 kmh 29.97 in1014.9 mb 0.00 in0.0 mm 0.00 in0.0 mm 0.00 in0.0 mm
03:30 PM 84.1°F28.9°C 67.1°F19.5°C 41% 4.0 mph NW6.4 kmh NW 4.0 mph6.4 kmh 29.97 in1014.9 mb 0.00 in0.0 mm 0.00 in0.0 mm 0.00 in0.0 mm
03:33 PM 84.7°F29.3°C 66.8°F19.3°C 41% 4.9 mph NW7.9 kmh NW 4.9 mph7.9 kmh 29.96 in1014.6 mb 0.00 in0.0 mm 0.00 in0.0 mm 0.00 in0.0 mm
03:39 PM 85.3°F29.6°C 66.3°F19.1°C 40% 5.6 mph NNW9.0 kmh NNW 5.7 mph9.2 kmh 29.97 in1014.9 mb 0.00 in0.0 mm 0.00 in0.0 mm 0.00 in0.0 mm
03:42 PM 84.1°F28.9°C 66.4°F19.1°C 40% 5.8 mph NNE9.3 kmh NNE 5.8 mph9.3 kmh 29.96 in1014.6 mb 0.00 in0.0 mm 0.00 in0.0 mm 0.00 in0.0 mm
03:45 PM 84.0°F28.9°C 65.8°F18.8°C 40% 0.8 mph NW1.3 kmh NW 0.8 mph1.3 kmh 29.96 in1014.6 mb 0.00 in0.0 mm 0.00 in0.0 mm 0.00 in0.0 mm
03:48 PM 85.1°F29.5°C 66.1°F18.9°C 40% 2.3 mph WNW3.7 kmh WNW 2.3 mph3.7 kmh 29.96 in1014.6 mb 0.00 in0.0 mm 0.00 in0.0 mm 0.00 in0.0 mm
03:51 PM 86.0°F30.0°C 66.7°F19.3°C 41% 3.8 mph 6.1 kmh 3.9 mph6.3 kmh 29.96 in1014.6 mb 0.00 in0.0 mm 0.00 in0.0 mm 0.00 in0.0 mm
03:54 PM 85.6°F29.8°C 66.3°F19.1°C 40% 8.7 mph WNW14.0 kmh WNW 8.7 mph14.0 kmh 29.96 in1014.6 mb 0.00 in0.0 mm 0.00 in0.0 mm 0.00 in0.0 mm
03:57 PM 85.0°F29.4°C 66.6°F19.2°C 41% 10.1 mph NNW16.3 kmh NNW 10.2 mph16.4 kmh 29.97 in1014.9 mb 0.00 in0.0 mm 0.00 in0.0 mm 0.00 in0.0 mm
04:00 PM 86.0°F30.0°C 66.1°F18.9°C 40% 5.3 mph NW8.5 kmh NW 5.3 mph8.5 kmh 29.97 in1014.9 mb 0.00 in0.0 mm 0.00 in0.0 mm 0.00 in0.0 mm
04:03 PM 85.3°F29.6°C 66.4°F19.1°C 41% 8.0 mph NW12.9 kmh NW 8.0 mph12.9 kmh 29.97 in1014.9 mb 0.00 in0.0 mm 0.00 in0.0 mm 0.00 in0.0 mm
04:06 PM 87.1°F30.6°C 66.5°F19.2°C 41% 4.3 mph S6.9 kmh S 4.3 mph6.9 kmh 29.97 in1014.9 mb 0.00 in0.0 mm 0.00 in0.0 mm 0.00 in0.0 mm
04:09 PM 86.1°F30.1°C 66.3°F19.1°C 40% 2.7 mph WNW4.3 kmh WNW 2.7 mph4.3 kmh 29.97 in1014.9 mb 0.00 in0.0 mm 0.00 in0.0 mm 0.00 in0.0 mm
04:12 PM 87.7°F30.9°C 66.4°F19.1°C 40% 6.6 mph W10.6 kmh W 6.6 mph10.6 kmh 29.97 in1014.9 mb 0.00 in0.0 mm 0.00 in0.0 mm 0.00 in0.0 mm
04:15 PM 86.7°F30.4°C 66.8°F19.3°C 40% 3.8 mph WSW6.1 kmh WSW 3.9 mph6.3 kmh 29.96 in1014.6 mb 0.00 in0.0 mm 0.00 in0.0 mm 0.00 in0.0 mm
04:21 PM 86.7°F30.4°C 65.2°F18.4°C 39% 5.0 mph NNW8.0 kmh NNW 5.0 mph8.0 kmh 29.97 in1014.9 mb 0.00 in0.0 mm 0.00 in0.0 mm 0.00 in0.0 mm
04:24 PM 87.9°F31.1°C 65.3°F18.5°C 39% 4.6 mph WNW7.4 kmh WNW 4.6 mph7.4 kmh 29.97 in1014.9 mb 0.00 in0.0 mm 0.00 in0.0 mm 0.00 in0.0 mm
04:27 PM 87.2°F30.7°C 64.2°F17.9°C 38% 3.9 mph W6.3 kmh W 3.9 mph6.3 kmh 29.97 in1014.9 mb 0.00 in0.0 mm 0.00 in0.0 mm 0.00 in0.0 mm
04:30 PM 86.5°F30.3°C 64.4°F18.0°C 38% 1.6 mph NNW2.6 kmh NNW 1.6 mph2.6 kmh 29.97 in1014.9 mb 0.00 in0.0 mm 0.00 in0.0 mm 0.00 in0.0 mm
04:33 PM 87.7°F30.9°C 64.6°F18.1°C 38% 2.8 mph NNW4.5 kmh NNW 2.9 mph4.7 kmh 29.96 in1014.6 mb 0.00 in0.0 mm 0.00 in0.0 mm 0.00 in0.0 mm
04:36 PM 86.6°F30.3°C 64.4°F18.0°C 38% 8.9 mph NW14.3 kmh NW 9.0 mph14.5 kmh 29.96 in1014.6 mb 0.00 in0.0 mm 0.00 in0.0 mm 0.00 in0.0 mm
04:42 PM 87.7°F30.9°C 64.1°F17.8°C 38% 6.4 mph NNW10.3 kmh NNW 6.4 mph10.3 kmh 29.97 in1014.9 mb 0.00 in0.0 mm 0.00 in0.0 mm 0.00 in0.0 mm
04:45 PM 86.6°F30.3°C 63.5°F17.5°C 37% 8.7 mph NW14.0 kmh NW 8.8 mph14.2 kmh 29.97 in1014.9 mb 0.00 in0.0 mm 0.00 in0.0 mm 0.00 in0.0 mm
04:48 PM 84.9°F29.4°C 63.1°F17.3°C 38% 6.5 mph 10.5 kmh 6.5 mph10.5 kmh 29.97 in1014.9 mb 0.00 in0.0 mm 0.00 in0.0 mm 0.00 in0.0 mm
04:51 PM 86.1°F30.1°C 63.9°F17.7°C 39% 4.0 mph W6.4 kmh W 4.0 mph6.4 kmh 29.97 in1014.9 mb 0.00 in0.0 mm 0.00 in0.0 mm 0.00 in0.0 mm
04:54 PM 87.5°F30.8°C 63.2°F17.3°C 38% 7.3 mph WSW11.7 kmh WSW 7.3 mph11.7 kmh 29.97 in1014.9 mb 0.00 in0.0 mm 0.00 in0.0 mm 0.00 in0.0 mm
04:57 PM 86.9°F30.5°C 63.4°F17.4°C 38% 4.4 mph NNW7.1 kmh NNW 4.5 mph7.2 kmh 29.99 in1015.6 mb 0.00 in0.0 mm 0.00 in0.0 mm 0.00 in0.0 mm
05:00 PM 86.8°F30.4°C 62.4°F16.9°C 37% 4.0 mph NW6.4 kmh NW 4.1 mph6.6 kmh 29.98 in1015.2 mb 0.00 in0.0 mm 0.00 in0.0 mm 0.00 in0.0 mm
05:03 PM 85.3°F29.6°C 62.6°F17.0°C 37% 5.7 mph NW9.2 kmh NW 5.7 mph9.2 kmh 29.98 in1015.2 mb 0.00 in0.0 mm 0.00 in0.0 mm 0.00 in0.0 mm
05:06 PM 83.9°F28.8°C 61.5°F16.4°C 36% 2.0 mph W3.2 kmh W 2.0 mph3.2 kmh 29.98 in1015.2 mb 0.00 in0.0 mm 0.00 in0.0 mm 0.00 in0.0 mm
05:12 PM 83.9°F28.8°C 58.8°F14.9°C 33% 10.9 mph NW17.5 kmh NW 11.0 mph17.7 kmh 29.98 in1015.2 mb 0.00 in0.0 mm 0.00 in0.0 mm 0.00 in0.0 mm
05:15 PM 83.1°F28.4°C 58.8°F14.9°C 34% 7.2 mph 11.6 kmh 7.2 mph11.6 kmh 29.98 in1015.2 mb 0.00 in0.0 mm 0.00 in0.0 mm 0.00 in0.0 mm
05:18 PM 81.5°F27.5°C 58.6°F14.8°C 34% 7.9 mph NW12.7 kmh NW 8.0 mph12.9 kmh 29.98 in1015.2 mb 0.00 in0.0 mm 0.00 in0.0 mm 0.00 in0.0 mm
05:24 PM 82.5°F28.1°C 58.8°F14.9°C 35% 3.1 mph WNW5.0 kmh WNW 3.1 mph5.0 kmh 29.98 in1015.2 mb 0.00 in0.0 mm 0.00 in0.0 mm 0.00 in0.0 mm
05:27 PM 80.8°F27.1°C 59.7°F15.4°C 36% 5.0 mph NW8.0 kmh NW 5.0 mph8.0 kmh 29.99 in1015.6 mb 0.00 in0.0 mm 0.00 in0.0 mm 0.00 in0.0 mm
05:30 PM 80.2°F26.8°C 59.0°F15.0°C 35% 6.9 mph NNE11.1 kmh NNE 7.0 mph11.3 kmh 29.99 in1015.6 mb 0.00 in0.0 mm 0.00 in0.0 mm 0.00 in0.0 mm
05:33 PM 80.2°F26.8°C 58.6°F14.8°C 35% 5.7 mph NNW9.2 kmh NNW 5.7 mph9.2 kmh 29.99 in1015.6 mb 0.00 in0.0 mm 0.00 in0.0 mm 0.00 in0.0 mm
05:36 PM 79.4°F26.3°C 58.4°F14.7°C 35% 3.1 mph NNW5.0 kmh NNW 3.1 mph5.0 kmh 29.99 in1015.6 mb 0.00 in0.0 mm 0.00 in0.0 mm 0.00 in0.0 mm
05:39 PM 80.5°F26.9°C 58.6°F14.8°C 36% 6.1 mph NNW9.8 kmh NNW 6.5 mph10.5 kmh 29.99 in1015.6 mb 0.00 in0.0 mm 0.00 in0.0 mm 0.00 in0.0 mm
05:42 PM 80.0°F26.7°C 58.8°F14.9°C 36% 5.4 mph NNW8.7 kmh NNW 5.4 mph8.7 kmh 29.99 in1015.6 mb 0.00 in0.0 mm 0.00 in0.0 mm 0.00 in0.0 mm
05:45 PM 78.9°F26.1°C 59.0°F15.0°C 37% 6.3 mph NW10.1 kmh NW 6.4 mph10.3 kmh 29.99 in1015.6 mb 0.00 in0.0 mm 0.00 in0.0 mm 0.00 in0.0 mm
05:51 PM 78.6°F25.9°C 58.9°F14.9°C 37% 7.7 mph NW12.4 kmh NW 7.7 mph12.4 kmh 30.00 in1015.9 mb 0.00 in0.0 mm 0.00 in0.0 mm 0.00 in0.0 mm
05:54 PM 78.0°F25.6°C 58.9°F14.9°C 37% 4.4 mph 7.1 kmh 4.5 mph7.2 kmh 29.99 in1015.6 mb 0.00 in0.0 mm 0.00 in0.0 mm 0.00 in0.0 mm
05:57 PM 77.7°F25.4°C 57.3°F14.1°C 36% 4.8 mph NNW7.7 kmh NNW 4.9 mph7.9 kmh 30.00 in1015.9 mb 0.00 in0.0 mm 0.00 in0.0 mm 0.00 in0.0 mm
06:00 PM 77.6°F25.3°C 57.9°F14.4°C 37% 9.1 mph 14.6 kmh 9.2 mph14.8 kmh 30.00 in1015.9 mb 0.00 in0.0 mm 0.00 in0.0 mm 0.00 in0.0 mm
06:03 PM 77.8°F25.4°C 57.5°F14.2°C 36% 4.0 mph 6.4 kmh 4.0 mph6.4 kmh 29.99 in1015.6 mb 0.00 in0.0 mm 0.00 in0.0 mm 0.00 in0.0 mm
06:06 PM 78.2°F25.7°C 56.7°F13.7°C 35% 5.6 mph NW9.0 kmh NW 5.6 mph9.0 kmh 29.99 in1015.6 mb 0.00 in0.0 mm 0.00 in0.0 mm 0.00 in0.0 mm
06:09 PM 79.4°F26.3°C 57.8°F14.3°C 37% 5.6 mph NW9.0 kmh NW 5.7 mph9.2 kmh 29.99 in1015.6 mb 0.00 in0.0 mm 0.00 in0.0 mm 0.00 in0.0 mm
06:12 PM 78.9°F26.1°C 57.2°F14.0°C 36% 5.2 mph 8.4 kmh 5.2 mph8.4 kmh 29.99 in1015.6 mb 0.00 in0.0 mm 0.00 in0.0 mm 0.00 in0.0 mm
06:21 PM 79.1°F26.2°C 57.9°F14.4°C 37% 7.7 mph NNW12.4 kmh NNW 7.7 mph12.4 kmh 29.99 in1015.6 mb 0.00 in0.0 mm 0.00 in0.0 mm 0.00 in0.0 mm
06:24 PM 78.8°F26.0°C 57.9°F14.4°C 37% 5.2 mph NNW8.4 kmh NNW 5.2 mph8.4 kmh 29.99 in1015.6 mb 0.00 in0.0 mm 0.00 in0.0 mm 0.00 in0.0 mm
06:27 PM 78.7°F25.9°C 58.5°F14.7°C 38% 5.5 mph NNW8.9 kmh NNW 5.6 mph9.0 kmh 29.99 in1015.6 mb 0.00 in0.0 mm 0.00 in0.0 mm 0.00 in0.0 mm
06:30 PM 78.8°F26.0°C 57.6°F14.2°C 37% 8.5 mph NE13.7 kmh NE 8.6 mph13.8 kmh 29.99 in1015.6 mb 0.00 in0.0 mm 0.00 in0.0 mm 0.00 in0.0 mm
06:33 PM 78.2°F25.7°C 58.3°F14.6°C 37% 7.1 mph 11.4 kmh 7.2 mph11.6 kmh 29.99 in1015.6 mb 0.00 in0.0 mm 0.00 in0.0 mm 0.00 in0.0 mm
06:36 PM 78.0°F25.6°C 58.3°F14.6°C 38% 5.3 mph NNW8.5 kmh NNW 5.3 mph8.5 kmh 29.99 in1015.6 mb 0.00 in0.0 mm 0.00 in0.0 mm 0.00 in0.0 mm
06:39 PM 77.7°F25.4°C 58.3°F14.6°C 38% 4.6 mph NNW7.4 kmh NNW 4.7 mph7.6 kmh 29.99 in1015.6 mb 0.00 in0.0 mm 0.00 in0.0 mm 0.00 in0.0 mm
06:42 PM 77.8°F25.4°C 58.8°F14.9°C 39% 5.0 mph 8.0 kmh 5.0 mph8.0 kmh 29.99 in1015.6 mb 0.00 in0.0 mm 0.00 in0.0 mm 0.00 in0.0 mm
06:45 PM 77.7°F25.4°C 58.0°F14.4°C 38% 2.8 mph NNW4.5 kmh NNW 2.8 mph4.5 kmh 29.99 in1015.6 mb 0.00 in0.0 mm 0.00 in0.0 mm 0.00 in0.0 mm
06:48 PM 77.7°F25.4°C 58.1°F14.5°C 38% 6.5 mph 10.5 kmh 6.5 mph10.5 kmh 29.99 in1015.6 mb 0.00 in0.0 mm 0.00 in0.0 mm 0.00 in0.0 mm
06:51 PM 77.3°F25.2°C 58.6°F14.8°C 39% 5.3 mph 8.5 kmh 5.3 mph8.5 kmh 29.99 in1015.6 mb 0.00 in0.0 mm 0.00 in0.0 mm 0.00 in0.0 mm
06:57 PM 77.1°F25.1°C 58.7°F14.8°C 39% 4.4 mph NNW7.1 kmh NNW 4.5 mph7.2 kmh 29.99 in1015.6 mb 0.00 in0.0 mm 0.00 in0.0 mm 0.00 in0.0 mm
07:00 PM 76.8°F24.9°C 58.9°F14.9°C 40% 2.8 mph NNE4.5 kmh NNE 2.8 mph4.5 kmh 29.99 in1015.6 mb 0.00 in0.0 mm 0.00 in0.0 mm 0.00 in0.0 mm
07:03 PM 76.6°F24.8°C 58.8°F14.9°C 40% 3.4 mph NNW5.5 kmh NNW 3.5 mph5.6 kmh 29.99 in1015.6 mb 0.00 in0.0 mm 0.00 in0.0 mm 0.00 in0.0 mm
07:06 PM 77.1°F25.1°C 58.6°F14.8°C 40% 3.2 mph NNW5.1 kmh NNW 3.3 mph5.3 kmh 29.99 in1015.6 mb 0.00 in0.0 mm 0.00 in0.0 mm 0.00 in0.0 mm
07:09 PM 76.7°F24.8°C 58.1°F14.5°C 39% 2.8 mph NNW4.5 kmh NNW 2.9 mph4.7 kmh 29.99 in1015.6 mb 0.00 in0.0 mm 0.00 in0.0 mm 0.00 in0.0 mm
07:12 PM 76.7°F24.8°C 58.8°F14.9°C 40% 6.1 mph NNW9.8 kmh NNW 6.1 mph9.8 kmh 29.99 in1015.6 mb 0.00 in0.0 mm 0.00 in0.0 mm 0.00 in0.0 mm
07:18 PM 76.2°F24.6°C 59.1°F15.1°C 41% 1.5 mph NNW2.4 kmh NNW 1.6 mph2.6 kmh 29.99 in1015.6 mb 0.00 in0.0 mm 0.00 in0.0 mm 0.00 in0.0 mm
07:21 PM 76.2°F24.6°C 59.1°F15.1°C 41% 3.2 mph NNW5.1 kmh NNW 3.3 mph5.3 kmh 29.99 in1015.6 mb 0.00 in0.0 mm 0.00 in0.0 mm 0.00 in0.0 mm
07:24 PM 76.1°F24.5°C 58.8°F14.9°C 41% 3.2 mph 5.1 kmh 3.3 mph5.3 kmh 29.99 in1015.6 mb 0.00 in0.0 mm 0.00 in0.0 mm 0.00 in0.0 mm
07:27 PM 76.0°F24.4°C 59.5°F15.3°C 42% 2.3 mph NNW3.7 kmh NNW 2.3 mph3.7 kmh 29.99 in1015.6 mb 0.00 in0.0 mm 0.00 in0.0 mm 0.00 in0.0 mm
07:30 PM 76.0°F24.4°C 59.3°F15.2°C 42% 5.3 mph NW8.5 kmh NW 5.3 mph8.5 kmh 30.00 in1015.9 mb 0.00 in0.0 mm 0.00 in0.0 mm 0.00 in0.0 mm
07:33 PM 75.5°F24.2°C 59.4°F15.2°C 42% 2.8 mph NNW4.5 kmh NNW 2.8 mph4.5 kmh 30.00 in1015.9 mb 0.00 in0.0 mm 0.00 in0.0 mm 0.00 in0.0 mm
07:36 PM 75.7°F24.3°C 59.3°F15.2°C 42% 5.7 mph NNW9.2 kmh NNW 5.7 mph9.2 kmh 30.00 in1015.9 mb 0.00 in0.0 mm 0.00 in0.0 mm 0.00 in0.0 mm
07:39 PM 75.2°F24.0°C 59.7°F15.4°C 43% 3.6 mph NW5.8 kmh NW 3.6 mph5.8 kmh 30.00 in1015.9 mb 0.00 in0.0 mm 0.00 in0.0 mm 0.00 in0.0 mm
07:42 PM 75.0°F23.9°C 59.3°F15.2°C 42% 3.6 mph NNW5.8 kmh NNW 3.6 mph5.8 kmh 30.00 in1015.9 mb 0.00 in0.0 mm 0.00 in0.0 mm 0.00 in0.0 mm
07:48 PM 74.5°F23.6°C 59.9°F15.5°C 43% 2.4 mph NNW3.9 kmh NNW 2.5 mph4.0 kmh 30.00 in1015.9 mb 0.00 in0.0 mm 0.00 in0.0 mm 0.00 in0.0 mm
07:51 PM 74.0°F23.3°C 59.6°F15.3°C 43% 1.6 mph NW2.6 kmh NW 1.6 mph2.6 kmh 30.00 in1015.9 mb 0.00 in0.0 mm 0.00 in0.0 mm 0.00 in0.0 mm
07:54 PM 74.2°F23.4°C 59.5°F15.3°C 43% 2.4 mph 3.9 kmh 2.4 mph3.9 kmh 30.00 in1015.9 mb 0.00 in0.0 mm 0.00 in0.0 mm 0.00 in0.0 mm
07:57 PM 74.0°F23.3°C 59.9°F15.5°C 44% 1.2 mph NW1.9 kmh NW 1.2 mph1.9 kmh 30.00 in1015.9 mb 0.00 in0.0 mm 0.00 in0.0 mm 0.00 in0.0 mm
08:00 PM 73.4°F23.0°C 59.7°F15.4°C 44% 3.8 mph NNW6.1 kmh NNW 3.8 mph6.1 kmh 30.00 in1015.9 mb 0.00 in0.0 mm 0.00 in0.0 mm 0.00 in0.0 mm
08:03 PM 73.2°F22.9°C 59.6°F15.3°C 44% 2.0 mph NNW3.2 kmh NNW 2.0 mph3.2 kmh 30.00 in1015.9 mb 0.00 in0.0 mm 0.00 in0.0 mm 0.00 in0.0 mm
08:06 PM 73.1°F22.8°C 59.9°F15.5°C 45% 2.8 mph NNW4.5 kmh NNW 2.8 mph4.5 kmh 30.01 in1016.3 mb 0.00 in0.0 mm 0.00 in0.0 mm 0.00 in0.0 mm
08:12 PM 72.8°F22.7°C 59.7°F15.4°C 45% 1.6 mph NNW2.6 kmh NNW 1.6 mph2.6 kmh 30.01 in1016.3 mb 0.00 in0.0 mm 0.00 in0.0 mm 0.00 in0.0 mm
08:15 PM 72.5°F22.5°C 59.9°F15.5°C 46% 1.9 mph NNW3.1 kmh NNW 1.9 mph3.1 kmh 30.00 in1015.9 mb 0.00 in0.0 mm 0.00 in0.0 mm 0.00 in0.0 mm
08:18 PM 72.3°F22.4°C 59.8°F15.4°C 46% 1.1 mph NNW1.8 kmh NNW 1.2 mph1.9 kmh 30.00 in1015.9 mb 0.00 in0.0 mm 0.00 in0.0 mm 0.00 in0.0 mm
08:24 PM 71.2°F21.8°C 60.1°F15.6°C 47% 1.9 mph 3.1 kmh 1.9 mph3.1 kmh 30.01 in1016.3 mb 0.00 in0.0 mm 0.00 in0.0 mm 0.00 in0.0 mm
08:27 PM 70.8°F21.6°C 60.1°F15.6°C 47% 2.0 mph 3.2 kmh 2.0 mph3.2 kmh 30.01 in1016.3 mb 0.00 in0.0 mm 0.00 in0.0 mm 0.00 in0.0 mm
08:30 PM 70.8°F21.6°C 59.8°F15.4°C 47% 2.4 mph NNW3.9 kmh NNW 2.4 mph3.9 kmh 30.01 in1016.3 mb 0.00 in0.0 mm 0.00 in0.0 mm 0.00 in0.0 mm
08:33 PM 70.8°F21.6°C 59.6°F15.3°C 47% 3.2 mph NNW5.1 kmh NNW 3.2 mph5.1 kmh 30.01 in1016.3 mb 0.00 in0.0 mm 0.00 in0.0 mm 0.00 in0.0 mm
08:36 PM 70.8°F21.6°C 59.4°F15.2°C 47% 2.0 mph 3.2 kmh 2.0 mph3.2 kmh 30.01 in1016.3 mb 0.00 in0.0 mm 0.00 in0.0 mm 0.00 in0.0 mm
08:39 PM 70.4°F21.3°C 59.9°F15.5°C 47% 2.4 mph NNW3.9 kmh NNW 2.4 mph3.9 kmh 30.01 in1016.3 mb 0.00 in0.0 mm 0.00 in0.0 mm 0.00 in0.0 mm
08:45 PM 70.3°F21.3°C 59.8°F15.4°C 48% 3.2 mph NNW5.1 kmh NNW 3.2 mph5.1 kmh 30.01 in1016.3 mb 0.00 in0.0 mm 0.00 in0.0 mm 0.00 in0.0 mm
08:48 PM 70.1°F21.2°C 59.6°F15.3°C 48% 2.4 mph NNW3.9 kmh NNW 2.4 mph3.9 kmh 30.01 in1016.3 mb 0.00 in0.0 mm 0.00 in0.0 mm 0.00 in0.0 mm
08:51 PM 68.9°F20.5°C 59.9°F15.5°C 48% 1.2 mph NNW1.9 kmh NNW 1.2 mph1.9 kmh 30.01 in1016.3 mb 0.00 in0.0 mm 0.00 in0.0 mm 0.00 in0.0 mm
08:54 PM 68.7°F20.4°C 59.3°F15.2°C 48% 0.8 mph 1.3 kmh 0.8 mph1.3 kmh 30.02 in1016.6 mb 0.00 in0.0 mm 0.00 in0.0 mm 0.00 in0.0 mm
08:57 PM 68.6°F20.3°C 59.7°F15.4°C 50% 0.4 mph NNW0.6 kmh NNW 0.4 mph0.6 kmh 30.01 in1016.3 mb 0.00 in0.0 mm 0.00 in0.0 mm 0.00 in0.0 mm
09:00 PM 68.5°F20.3°C 60.1°F15.6°C 49% 0.8 mph NNW1.3 kmh NNW 0.8 mph1.3 kmh 30.02 in1016.6 mb 0.00 in0.0 mm 0.00 in0.0 mm 0.00 in0.0 mm
09:03 PM 68.0°F20.0°C 60.4°F15.8°C 50% 1.2 mph NE1.9 kmh NE 1.2 mph1.9 kmh 30.02 in1016.6 mb 0.00 in0.0 mm 0.00 in0.0 mm 0.00 in0.0 mm
09:06 PM 67.4°F19.7°C 60.4°F15.8°C 52% 2.0 mph NE3.2 kmh NE 2.0 mph3.2 kmh 30.02 in1016.6 mb 0.00 in0.0 mm 0.00 in0.0 mm 0.00 in0.0 mm
09:09 PM 66.3°F19.1°C 59.8°F15.4°C 51% 1.2 mph NNW1.9 kmh NNW 1.2 mph1.9 kmh 30.02 in1016.6 mb 0.00 in0.0 mm 0.00 in0.0 mm 0.00 in0.0 mm
09:12 PM 67.4°F19.7°C 59.5°F15.3°C 51% 1.6 mph NNE2.6 kmh NNE 1.6 mph2.6 kmh 30.03 in1016.9 mb 0.00 in0.0 mm 0.00 in0.0 mm 0.00 in0.0 mm
09:15 PM 67.4°F19.7°C 60.4°F15.8°C 52% 1.2 mph NE1.9 kmh NE 1.2 mph1.9 kmh 30.03 in1016.9 mb 0.00 in0.0 mm 0.00 in0.0 mm 0.00 in0.0 mm
09:18 PM 67.2°F19.6°C 59.5°F15.3°C 52% Calm Calm -- 30.03 in1016.9 mb 0.00 in0.0 mm 0.00 in0.0 mm 0.00 in0.0 mm
09:21 PM 67.2°F19.6°C 60.0°F15.6°C 52% Calm Calm -- 30.03 in1016.9 mb 0.00 in0.0 mm 0.00 in0.0 mm 0.00 in0.0 mm
09:24 PM 66.0°F18.9°C 60.1°F15.6°C 52% Calm Calm -- 30.03 in1016.9 mb 0.00 in0.0 mm 0.00 in0.0 mm 0.00 in0.0 mm
09:27 PM 65.6°F18.7°C 60.6°F15.9°C 53% 0.4 mph NE0.6 kmh NE 0.4 mph0.6 kmh 30.03 in1016.9 mb 0.00 in0.0 mm 0.00 in0.0 mm 0.00 in0.0 mm
09:30 PM 65.2°F18.4°C 59.7°F15.4°C 53% Calm Calm -- 30.03 in1016.9 mb 0.00 in0.0 mm 0.00 in0.0 mm 0.00 in0.0 mm
09:33 PM 64.6°F18.1°C 60.0°F15.6°C 53% 0.8 mph NNE1.3 kmh NNE 0.8 mph1.3 kmh 30.03 in1016.9 mb 0.00 in0.0 mm 0.00 in0.0 mm 0.00 in0.0 mm
09:36 PM 64.4°F18.0°C 59.3°F15.2°C 53% 1.5 mph NNE2.4 kmh NNE 1.6 mph2.6 kmh 30.03 in1016.9 mb 0.00 in0.0 mm 0.00 in0.0 mm 0.00 in0.0 mm
09:39 PM 64.6°F18.1°C 60.3°F15.7°C 54% 0.8 mph NNW1.3 kmh NNW 0.8 mph1.3 kmh 30.03 in1016.9 mb 0.00 in0.0 mm 0.00 in0.0 mm 0.00 in0.0 mm
09:42 PM 64.5°F18.1°C 59.2°F15.1°C 54% 1.2 mph NNE1.9 kmh NNE 1.2 mph1.9 kmh 30.03 in1016.9 mb 0.00 in0.0 mm 0.00 in0.0 mm 0.00 in0.0 mm
09:45 PM 64.2°F17.9°C 60.3°F15.7°C 55% Calm Calm -- 30.03 in1016.9 mb 0.00 in0.0 mm 0.00 in0.0 mm 0.00 in0.0 mm
09:48 PM 64.2°F17.9°C 60.4°F15.8°C 55% 1.6 mph NNE2.6 kmh NNE 1.6 mph2.6 kmh 30.03 in1016.9 mb 0.00 in0.0 mm 0.00 in0.0 mm 0.00 in0.0 mm
09:51 PM 64.4°F18.0°C 60.0°F15.6°C 55% 1.2 mph 1.9 kmh 1.2 mph1.9 kmh 30.03 in1016.9 mb 0.00 in0.0 mm 0.00 in0.0 mm 0.00 in0.0 mm
09:54 PM 64.0°F17.8°C 59.1°F15.1°C 55% 1.6 mph 2.6 kmh 1.6 mph2.6 kmh 30.03 in1016.9 mb 0.00 in0.0 mm 0.00 in0.0 mm 0.00 in0.0 mm
10:00 PM 64.4°F18.0°C 58.9°F14.9°C 55% 1.2 mph NNW1.9 kmh NNW 1.2 mph1.9 kmh 30.03 in1016.9 mb 0.00 in0.0 mm 0.00 in0.0 mm 0.00 in0.0 mm
10:03 PM 64.4°F18.0°C 59.6°F15.3°C 55% 2.0 mph NNE3.2 kmh NNE 2.0 mph3.2 kmh 30.03 in1016.9 mb 0.00 in0.0 mm 0.00 in0.0 mm 0.00 in0.0 mm
10:06 PM 65.0°F18.3°C 58.8°F14.9°C 55% 1.2 mph 1.9 kmh 1.2 mph1.9 kmh 30.03 in1016.9 mb 0.00 in0.0 mm 0.00 in0.0 mm 0.00 in0.0 mm
10:09 PM 64.5°F18.1°C 58.8°F14.9°C 55% 1.2 mph 1.9 kmh 1.2 mph1.9 kmh 30.03 in1016.9 mb 0.00 in0.0 mm 0.00 in0.0 mm 0.00 in0.0 mm
10:15 PM 65.9°F18.8°C 58.7°F14.8°C 57% 3.6 mph 5.8 kmh 3.6 mph5.8 kmh 30.03 in1016.9 mb 0.00 in0.0 mm 0.00 in0.0 mm 0.00 in0.0 mm
10:18 PM 65.6°F18.7°C 59.7°F15.4°C 57% 2.0 mph NNW3.2 kmh NNW 2.0 mph3.2 kmh 30.03 in1016.9 mb 0.00 in0.0 mm 0.00 in0.0 mm 0.00 in0.0 mm
10:21 PM 66.7°F19.3°C 58.8°F14.9°C 56% 5.3 mph NE8.5 kmh NE 5.3 mph8.5 kmh 30.03 in1016.9 mb 0.00 in0.0 mm 0.00 in0.0 mm 0.00 in0.0 mm
10:24 PM 66.5°F19.2°C 58.3°F14.6°C 56% 2.8 mph NNE4.5 kmh NNE 2.8 mph4.5 kmh 30.03 in1016.9 mb 0.00 in0.0 mm 0.00 in0.0 mm 0.00 in0.0 mm
10:27 PM 66.1°F18.9°C 58.6°F14.8°C 56% 4.2 mph NE6.8 kmh NE 4.3 mph6.9 kmh 30.03 in1016.9 mb 0.00 in0.0 mm 0.00 in0.0 mm 0.00 in0.0 mm
10:30 PM 66.2°F19.0°C 58.3°F14.6°C 56% 4.8 mph ENE7.7 kmh ENE 4.9 mph7.9 kmh 30.03 in1016.9 mb 0.00 in0.0 mm 0.00 in0.0 mm 0.00 in0.0 mm
10:33 PM 66.1°F18.9°C 58.0°F14.4°C 55% 2.8 mph ENE4.5 kmh ENE 2.9 mph4.7 kmh 30.03 in1016.9 mb 0.00 in0.0 mm 0.00 in0.0 mm 0.00 in0.0 mm
10:36 PM 66.8°F19.3°C 57.6°F14.2°C 55% 3.2 mph ENE5.1 kmh ENE 3.2 mph5.1 kmh 30.03 in1016.9 mb 0.00 in0.0 mm 0.00 in0.0 mm 0.00 in0.0 mm
10:39 PM 66.5°F19.2°C 57.3°F14.1°C 54% 1.6 mph ENE2.6 kmh ENE 1.6 mph2.6 kmh 30.03 in1016.9 mb 0.00 in0.0 mm 0.00 in0.0 mm 0.00 in0.0 mm
10:42 PM 66.5°F19.2°C 57.4°F14.1°C 54% 0.4 mph ENE0.6 kmh ENE 0.4 mph0.6 kmh 30.03 in1016.9 mb 0.00 in0.0 mm 0.00 in0.0 mm 0.00 in0.0 mm
10:45 PM 66.1°F18.9°C 56.6°F13.7°C 54% 1.2 mph ENE1.9 kmh ENE 1.2 mph1.9 kmh 30.03 in1016.9 mb 0.00 in0.0 mm 0.00 in0.0 mm 0.00 in0.0 mm
10:48 PM 66.2°F19.0°C 56.9°F13.8°C 53% 2.0 mph E3.2 kmh E 2.0 mph3.2 kmh 30.03 in1016.9 mb 0.00 in0.0 mm 0.00 in0.0 mm 0.00 in0.0 mm
10:51 PM 65.5°F18.6°C 57.0°F13.9°C 54% 2.8 mph ENE4.5 kmh ENE 2.8 mph4.5 kmh 30.04 in1017.3 mb 0.00 in0.0 mm 0.00 in0.0 mm 0.00 in0.0 mm
10:54 PM 65.6°F18.7°C 56.6°F13.7°C 54% 2.0 mph ENE3.2 kmh ENE 2.0 mph3.2 kmh 30.04 in1017.3 mb 0.00 in0.0 mm 0.00 in0.0 mm 0.00 in0.0 mm
10:57 PM 65.6°F18.7°C 57.3°F14.1°C 54% 6.1 mph NNW9.8 kmh NNW 6.1 mph9.8 kmh 30.04 in1017.3 mb 0.00 in0.0 mm 0.00 in0.0 mm 0.00 in0.0 mm
11:00 PM 65.5°F18.6°C 56.4°F13.6°C 54% 1.2 mph ENE1.9 kmh ENE 1.2 mph1.9 kmh 30.04 in1017.3 mb 0.00 in0.0 mm 0.00 in0.0 mm 0.00 in0.0 mm
11:03 PM 65.4°F18.6°C 56.9°F13.8°C 54% 1.9 mph NNW3.1 kmh NNW 1.9 mph3.1 kmh 30.04 in1017.3 mb 0.00 in0.0 mm 0.00 in0.0 mm 0.00 in0.0 mm
11:06 PM 65.6°F18.7°C 56.6°F13.7°C 54% 2.0 mph ENE3.2 kmh ENE 2.0 mph3.2 kmh 30.04 in1017.3 mb 0.00 in0.0 mm 0.00 in0.0 mm 0.00 in0.0 mm
11:09 PM 65.2°F18.4°C 56.3°F13.5°C 54% 4.0 mph ENE6.4 kmh ENE 4.1 mph6.6 kmh 30.04 in1017.3 mb 0.00 in0.0 mm 0.00 in0.0 mm 0.00 in0.0 mm
11:12 PM 65.2°F18.4°C 56.4°F13.6°C 54% 0.4 mph NNW0.6 kmh NNW 0.4 mph0.6 kmh 30.03 in1016.9 mb 0.00 in0.0 mm 0.00 in0.0 mm 0.00 in0.0 mm
11:15 PM 65.1°F18.4°C 56.4°F13.6°C 53% 1.1 mph ENE1.8 kmh ENE 1.2 mph1.9 kmh 30.04 in1017.3 mb 0.00 in0.0 mm 0.00 in0.0 mm 0.00 in0.0 mm
11:18 PM 65.8°F18.8°C 55.9°F13.3°C 53% 4.4 mph E7.1 kmh E 4.4 mph7.1 kmh 30.03 in1016.9 mb 0.00 in0.0 mm 0.00 in0.0 mm 0.00 in0.0 mm
11:21 PM 65.1°F18.4°C 56.6°F13.7°C 54% 2.4 mph NE3.9 kmh NE 2.4 mph3.9 kmh 30.03 in1016.9 mb 0.00 in0.0 mm 0.00 in0.0 mm 0.00 in0.0 mm
11:24 PM 64.7°F18.2°C 56.0°F13.3°C 53% 2.0 mph E3.2 kmh E 2.0 mph3.2 kmh 30.03 in1016.9 mb 0.00 in0.0 mm 0.00 in0.0 mm 0.00 in0.0 mm
11:27 PM 64.9°F18.3°C 55.3°F12.9°C 53% 0.8 mph E1.3 kmh E 0.8 mph1.3 kmh 30.03 in1016.9 mb 0.00 in0.0 mm 0.00 in0.0 mm 0.00 in0.0 mm
11:30 PM 65.0°F18.3°C 55.4°F13.0°C 53% 4.5 mph NE7.2 kmh NE 4.5 mph7.2 kmh 30.03 in1016.9 mb 0.00 in0.0 mm 0.00 in0.0 mm 0.00 in0.0 mm
11:33 PM 65.2°F18.4°C 55.2°F12.9°C 53% 3.6 mph E5.8 kmh E 3.7 mph6.0 kmh 30.03 in1016.9 mb 0.00 in0.0 mm 0.00 in0.0 mm 0.00 in0.0 mm
11:36 PM 65.2°F18.4°C 55.5°F13.1°C 53% 7.5 mph NE12.1 kmh NE 7.6 mph12.2 kmh 30.03 in1016.9 mb 0.00 in0.0 mm 0.00 in0.0 mm 0.00 in0.0 mm
11:39 PM 64.9°F18.3°C 55.8°F13.2°C 54% 2.4 mph ENE3.9 kmh ENE 2.4 mph3.9 kmh 30.03 in1016.9 mb 0.00 in0.0 mm 0.00 in0.0 mm 0.00 in0.0 mm
11:42 PM 64.9°F18.3°C 55.5°F13.1°C 54% 2.8 mph ENE4.5 kmh ENE 2.8 mph4.5 kmh 30.03 in1016.9 mb 0.00 in0.0 mm 0.00 in0.0 mm 0.00 in0.0 mm
11:45 PM 65.0°F18.3°C 55.1°F12.8°C 53% 0.8 mph NNW1.3 kmh NNW 0.8 mph1.3 kmh 30.03 in1016.9 mb 0.00 in0.0 mm 0.00 in0.0 mm 0.00 in0.0 mm
11:48 PM 65.0°F18.3°C 55.2°F12.9°C 53% 4.4 mph NE7.1 kmh NE 4.5 mph7.2 kmh 30.03 in1016.9 mb 0.00 in0.0 mm 0.00 in0.0 mm 0.00 in0.0 mm
11:51 PM 64.9°F18.3°C 55.3°F12.9°C 54% 2.8 mph ENE4.5 kmh ENE 2.9 mph4.7 kmh 30.03 in1016.9 mb 0.00 in0.0 mm 0.00 in0.0 mm 0.00 in0.0 mm
11:54 PM 64.9°F18.3°C 54.8°F12.7°C 53% 5.6 mph NE9.0 kmh NE 5.7 mph9.2 kmh 30.03 in1016.9 mb 0.00 in0.0 mm 0.00 in0.0 mm 0.00 in0.0 mm
11:57 PM 65.0°F18.3°C 55.0°F12.8°C 53% 2.8 mph NE4.5 kmh NE 2.9 mph4.7 kmh 30.04 in1017.3 mb 0.00 in0.0 mm 0.00 in0.0 mm 0.00 in0.0 mm